<?xml version="1.0" encoding="UTF-8" standalone="no" ?>
<gpx xmlns="http://www.topografix.com/GPX/1/1" xmlns:xsi="http://www.w3.org/2001/XMLSchema-instance" xsi:schemaLocation="http://www.topografix.com/GPX/1/1 http://www.topografix.com/GPX/1/1/gpx.xsd" version="1.1" creator="VisuGPX - https://www.visugpx.com">
  <metadata>
    <name>Jura_Salins les Bains-Arc et Senans</name>
  </metadata>
  <trk>
    <name><![CDATA[11-JUIL-22 03:22:51 PM]]></name>
    <extensions>
      <line xmlns="http://www.topografix.com/GPX/gpx_style/0/2">
        <color>0000FF</color>
        <width>4</width>
      </line>
    </extensions>
    <trkseg>
      <trkpt lat="46.94695" lon="5.87916">
        <ele>349.1</ele>
        <time>2022-07-10T17:41:29Z</time>
      </trkpt>
      <trkpt lat="46.94695" lon="5.87912">
        <ele>348.13</ele>
        <time>2022-07-10T17:41:54Z</time>
      </trkpt>
      <trkpt lat="46.9469" lon="5.87916">
        <ele>348.13</ele>
        <time>2022-07-10T17:42:18Z</time>
      </trkpt>
      <trkpt lat="46.94686" lon="5.87923">
        <ele>348.13</ele>
        <time>2022-07-10T17:42:31Z</time>
      </trkpt>
      <trkpt lat="46.94675" lon="5.87925">
        <ele>347.65</ele>
        <time>2022-07-10T17:42:44Z</time>
      </trkpt>
      <trkpt lat="46.94675" lon="5.87926">
        <ele>347.17</ele>
        <time>2022-07-10T17:42:59Z</time>
      </trkpt>
      <trkpt lat="46.94675" lon="5.87925">
        <ele>347.65</ele>
        <time>2022-07-10T17:43:11Z</time>
      </trkpt>
      <trkpt lat="46.94676" lon="5.87928">
        <ele>321.22</ele>
        <time>2022-07-11T06:14:52Z</time>
      </trkpt>
      <trkpt lat="46.94661" lon="5.87956">
        <ele>321.7</ele>
        <time>2022-07-11T06:14:53Z</time>
      </trkpt>
      <trkpt lat="46.94669" lon="5.8794">
        <ele>321.7</ele>
        <time>2022-07-11T06:15:23Z</time>
      </trkpt>
      <trkpt lat="46.9467" lon="5.87932">
        <ele>325.06</ele>
        <time>2022-07-11T06:15:31Z</time>
      </trkpt>
      <trkpt lat="46.94668" lon="5.87932">
        <ele>328.43</ele>
        <time>2022-07-11T06:15:42Z</time>
      </trkpt>
      <trkpt lat="46.94671" lon="5.87932">
        <ele>331.79</ele>
        <time>2022-07-11T06:15:56Z</time>
      </trkpt>
      <trkpt lat="46.94673" lon="5.87931">
        <ele>335.16</ele>
        <time>2022-07-11T06:16:11Z</time>
      </trkpt>
      <trkpt lat="46.94673" lon="5.87928">
        <ele>354.38</ele>
        <time>2022-07-11T06:16:31Z</time>
      </trkpt>
      <trkpt lat="46.94673" lon="5.87928">
        <ele>354.38</ele>
        <time>2022-07-11T06:16:32Z</time>
      </trkpt>
      <trkpt lat="46.94672" lon="5.87928">
        <ele>338.04</ele>
        <time>2022-07-11T06:16:36Z</time>
      </trkpt>
      <trkpt lat="46.94672" lon="5.87928">
        <ele>338.52</ele>
        <time>2022-07-11T06:16:37Z</time>
      </trkpt>
      <trkpt lat="46.94672" lon="5.87932">
        <ele>339</ele>
        <time>2022-07-11T06:17:07Z</time>
      </trkpt>
      <trkpt lat="46.94671" lon="5.87932">
        <ele>338.52</ele>
        <time>2022-07-11T06:17:38Z</time>
      </trkpt>
      <trkpt lat="46.94672" lon="5.8793">
        <ele>339</ele>
        <time>2022-07-11T06:17:59Z</time>
      </trkpt>
      <trkpt lat="46.94672" lon="5.87931">
        <ele>339.48</ele>
        <time>2022-07-11T06:18:10Z</time>
      </trkpt>
      <trkpt lat="46.94672" lon="5.87932">
        <ele>339</ele>
        <time>2022-07-11T06:18:17Z</time>
      </trkpt>
      <trkpt lat="46.94674" lon="5.87935">
        <ele>339</ele>
        <time>2022-07-11T06:18:20Z</time>
      </trkpt>
      <trkpt lat="46.94685" lon="5.87932">
        <ele>339</ele>
        <time>2022-07-11T06:18:27Z</time>
      </trkpt>
      <trkpt lat="46.94686" lon="5.8793">
        <ele>339.48</ele>
        <time>2022-07-11T06:18:28Z</time>
      </trkpt>
      <trkpt lat="46.94687" lon="5.87927">
        <ele>339</ele>
        <time>2022-07-11T06:18:29Z</time>
      </trkpt>
      <trkpt lat="46.94687" lon="5.87924">
        <ele>339</ele>
        <time>2022-07-11T06:18:30Z</time>
      </trkpt>
      <trkpt lat="46.94687" lon="5.87922">
        <ele>339</ele>
        <time>2022-07-11T06:18:31Z</time>
      </trkpt>
      <trkpt lat="46.94687" lon="5.87919">
        <ele>339</ele>
        <time>2022-07-11T06:18:32Z</time>
      </trkpt>
      <trkpt lat="46.94688" lon="5.87916">
        <ele>339</ele>
        <time>2022-07-11T06:18:33Z</time>
      </trkpt>
      <trkpt lat="46.94689" lon="5.87913">
        <ele>339</ele>
        <time>2022-07-11T06:18:34Z</time>
      </trkpt>
      <trkpt lat="46.9469" lon="5.87911">
        <ele>339</ele>
        <time>2022-07-11T06:18:35Z</time>
      </trkpt>
      <trkpt lat="46.94689" lon="5.87908">
        <ele>339</ele>
        <time>2022-07-11T06:18:36Z</time>
      </trkpt>
      <trkpt lat="46.94688" lon="5.87907">
        <ele>339</ele>
        <time>2022-07-11T06:18:37Z</time>
      </trkpt>
      <trkpt lat="46.94686" lon="5.87907">
        <ele>339</ele>
        <time>2022-07-11T06:18:38Z</time>
      </trkpt>
      <trkpt lat="46.94684" lon="5.87907">
        <ele>339</ele>
        <time>2022-07-11T06:18:42Z</time>
      </trkpt>
      <trkpt lat="46.94683" lon="5.87906">
        <ele>339.48</ele>
        <time>2022-07-11T06:18:43Z</time>
      </trkpt>
      <trkpt lat="46.94682" lon="5.87904">
        <ele>339</ele>
        <time>2022-07-11T06:18:44Z</time>
      </trkpt>
      <trkpt lat="46.94681" lon="5.87902">
        <ele>339</ele>
        <time>2022-07-11T06:18:45Z</time>
      </trkpt>
      <trkpt lat="46.9468" lon="5.879">
        <ele>339.48</ele>
        <time>2022-07-11T06:18:46Z</time>
      </trkpt>
      <trkpt lat="46.94679" lon="5.87898">
        <ele>339.48</ele>
        <time>2022-07-11T06:18:47Z</time>
      </trkpt>
      <trkpt lat="46.94657" lon="5.87896">
        <ele>339.96</ele>
        <time>2022-07-11T06:18:58Z</time>
      </trkpt>
      <trkpt lat="46.94629" lon="5.87898">
        <ele>340.92</ele>
        <time>2022-07-11T06:19:13Z</time>
      </trkpt>
      <trkpt lat="46.9462" lon="5.879">
        <ele>341.41</ele>
        <time>2022-07-11T06:19:18Z</time>
      </trkpt>
      <trkpt lat="46.94619" lon="5.87902">
        <ele>341.41</ele>
        <time>2022-07-11T06:19:19Z</time>
      </trkpt>
      <trkpt lat="46.94618" lon="5.87904">
        <ele>341.41</ele>
        <time>2022-07-11T06:19:20Z</time>
      </trkpt>
      <trkpt lat="46.94601" lon="5.87927">
        <ele>343.81</ele>
        <time>2022-07-11T06:19:35Z</time>
      </trkpt>
      <trkpt lat="46.94593" lon="5.87944">
        <ele>345.25</ele>
        <time>2022-07-11T06:19:45Z</time>
      </trkpt>
      <trkpt lat="46.94593" lon="5.87946">
        <ele>345.25</ele>
        <time>2022-07-11T06:19:46Z</time>
      </trkpt>
      <trkpt lat="46.94594" lon="5.8795">
        <ele>345.25</ele>
        <time>2022-07-11T06:19:48Z</time>
      </trkpt>
      <trkpt lat="46.94594" lon="5.87951">
        <ele>345.73</ele>
        <time>2022-07-11T06:19:49Z</time>
      </trkpt>
      <trkpt lat="46.94595" lon="5.87953">
        <ele>345.25</ele>
        <time>2022-07-11T06:19:50Z</time>
      </trkpt>
      <trkpt lat="46.94597" lon="5.87954">
        <ele>345.25</ele>
        <time>2022-07-11T06:19:51Z</time>
      </trkpt>
      <trkpt lat="46.94623" lon="5.87961">
        <ele>344.29</ele>
        <time>2022-07-11T06:20:06Z</time>
      </trkpt>
      <trkpt lat="46.94664" lon="5.87968">
        <ele>344.77</ele>
        <time>2022-07-11T06:20:18Z</time>
      </trkpt>
      <trkpt lat="46.94717" lon="5.87977">
        <ele>345.25</ele>
        <time>2022-07-11T06:20:33Z</time>
      </trkpt>
      <trkpt lat="46.94753" lon="5.87969">
        <ele>345.73</ele>
        <time>2022-07-11T06:20:46Z</time>
      </trkpt>
      <trkpt lat="46.9479" lon="5.87921">
        <ele>344.29</ele>
        <time>2022-07-11T06:20:58Z</time>
      </trkpt>
      <trkpt lat="46.94846" lon="5.87857">
        <ele>343.81</ele>
        <time>2022-07-11T06:21:13Z</time>
      </trkpt>
      <trkpt lat="46.94877" lon="5.87822">
        <ele>345.25</ele>
        <time>2022-07-11T06:21:27Z</time>
      </trkpt>
      <trkpt lat="46.9491" lon="5.87764">
        <ele>344.77</ele>
        <time>2022-07-11T06:21:42Z</time>
      </trkpt>
      <trkpt lat="46.94924" lon="5.87735">
        <ele>343.81</ele>
        <time>2022-07-11T06:21:48Z</time>
      </trkpt>
      <trkpt lat="46.94945" lon="5.87669">
        <ele>341.41</ele>
        <time>2022-07-11T06:21:57Z</time>
      </trkpt>
      <trkpt lat="46.94948" lon="5.87662">
        <ele>341.41</ele>
        <time>2022-07-11T06:21:58Z</time>
      </trkpt>
      <trkpt lat="46.94998" lon="5.8755">
        <ele>339.96</ele>
        <time>2022-07-11T06:22:13Z</time>
      </trkpt>
      <trkpt lat="46.95034" lon="5.87455">
        <ele>339.96</ele>
        <time>2022-07-11T06:22:29Z</time>
      </trkpt>
      <trkpt lat="46.95064" lon="5.87366">
        <ele>341.41</ele>
        <time>2022-07-11T06:22:45Z</time>
      </trkpt>
      <trkpt lat="46.95083" lon="5.87299">
        <ele>340.92</ele>
        <time>2022-07-11T06:22:57Z</time>
      </trkpt>
      <trkpt lat="46.95098" lon="5.87241">
        <ele>339.48</ele>
        <time>2022-07-11T06:23:05Z</time>
      </trkpt>
      <trkpt lat="46.95107" lon="5.87196">
        <ele>337.08</ele>
        <time>2022-07-11T06:23:10Z</time>
      </trkpt>
      <trkpt lat="46.95119" lon="5.87154">
        <ele>333.71</ele>
        <time>2022-07-11T06:23:14Z</time>
      </trkpt>
      <trkpt lat="46.95135" lon="5.87077">
        <ele>333.71</ele>
        <time>2022-07-11T06:23:22Z</time>
      </trkpt>
      <trkpt lat="46.95134" lon="5.87072">
        <ele>332.27</ele>
        <time>2022-07-11T06:23:23Z</time>
      </trkpt>
      <trkpt lat="46.95132" lon="5.87067">
        <ele>331.79</ele>
        <time>2022-07-11T06:23:24Z</time>
      </trkpt>
      <trkpt lat="46.95127" lon="5.87057">
        <ele>331.31</ele>
        <time>2022-07-11T06:23:26Z</time>
      </trkpt>
      <trkpt lat="46.95126" lon="5.87051">
        <ele>331.31</ele>
        <time>2022-07-11T06:23:27Z</time>
      </trkpt>
      <trkpt lat="46.95125" lon="5.87046">
        <ele>331.31</ele>
        <time>2022-07-11T06:23:28Z</time>
      </trkpt>
      <trkpt lat="46.95125" lon="5.8704">
        <ele>331.79</ele>
        <time>2022-07-11T06:23:29Z</time>
      </trkpt>
      <trkpt lat="46.95128" lon="5.87016">
        <ele>334.2</ele>
        <time>2022-07-11T06:23:39Z</time>
      </trkpt>
      <trkpt lat="46.95131" lon="5.86992">
        <ele>337.08</ele>
        <time>2022-07-11T06:23:50Z</time>
      </trkpt>
      <trkpt lat="46.95139" lon="5.86945">
        <ele>337.08</ele>
        <time>2022-07-11T06:24:06Z</time>
      </trkpt>
      <trkpt lat="46.95152" lon="5.86872">
        <ele>336.6</ele>
        <time>2022-07-11T06:24:20Z</time>
      </trkpt>
      <trkpt lat="46.95163" lon="5.86826">
        <ele>336.6</ele>
        <time>2022-07-11T06:24:27Z</time>
      </trkpt>
      <trkpt lat="46.95164" lon="5.8682">
        <ele>337.08</ele>
        <time>2022-07-11T06:24:28Z</time>
      </trkpt>
      <trkpt lat="46.95166" lon="5.86814">
        <ele>336.6</ele>
        <time>2022-07-11T06:24:29Z</time>
      </trkpt>
      <trkpt lat="46.95192" lon="5.86731">
        <ele>336.6</ele>
        <time>2022-07-11T06:24:43Z</time>
      </trkpt>
      <trkpt lat="46.95194" lon="5.86726">
        <ele>336.6</ele>
        <time>2022-07-11T06:24:44Z</time>
      </trkpt>
      <trkpt lat="46.95196" lon="5.8672">
        <ele>336.12</ele>
        <time>2022-07-11T06:24:45Z</time>
      </trkpt>
      <trkpt lat="46.95199" lon="5.86715">
        <ele>336.6</ele>
        <time>2022-07-11T06:24:46Z</time>
      </trkpt>
      <trkpt lat="46.95247" lon="5.86622">
        <ele>335.64</ele>
        <time>2022-07-11T06:25:02Z</time>
      </trkpt>
      <trkpt lat="46.95297" lon="5.86546">
        <ele>334.2</ele>
        <time>2022-07-11T06:25:15Z</time>
      </trkpt>
      <trkpt lat="46.9538" lon="5.86436">
        <ele>333.23</ele>
        <time>2022-07-11T06:25:35Z</time>
      </trkpt>
      <trkpt lat="46.95475" lon="5.8634">
        <ele>332.27</ele>
        <time>2022-07-11T06:25:55Z</time>
      </trkpt>
      <trkpt lat="46.95489" lon="5.86327">
        <ele>331.79</ele>
        <time>2022-07-11T06:25:58Z</time>
      </trkpt>
      <trkpt lat="46.9556" lon="5.86261">
        <ele>330.83</ele>
        <time>2022-07-11T06:26:12Z</time>
      </trkpt>
      <trkpt lat="46.95629" lon="5.86182">
        <ele>330.35</ele>
        <time>2022-07-11T06:26:28Z</time>
      </trkpt>
      <trkpt lat="46.95645" lon="5.86163">
        <ele>330.83</ele>
        <time>2022-07-11T06:26:32Z</time>
      </trkpt>
      <trkpt lat="46.95648" lon="5.86158">
        <ele>330.83</ele>
        <time>2022-07-11T06:26:33Z</time>
      </trkpt>
      <trkpt lat="46.95707" lon="5.86066">
        <ele>329.39</ele>
        <time>2022-07-11T06:26:49Z</time>
      </trkpt>
      <trkpt lat="46.95768" lon="5.85934">
        <ele>327.47</ele>
        <time>2022-07-11T06:27:09Z</time>
      </trkpt>
      <trkpt lat="46.95772" lon="5.8592">
        <ele>327.95</ele>
        <time>2022-07-11T06:27:17Z</time>
      </trkpt>
      <trkpt lat="46.95772" lon="5.85919">
        <ele>327.95</ele>
        <time>2022-07-11T06:27:20Z</time>
      </trkpt>
      <trkpt lat="46.95786" lon="5.85882">
        <ele>328.43</ele>
        <time>2022-07-11T06:27:31Z</time>
      </trkpt>
      <trkpt lat="46.95799" lon="5.85838">
        <ele>327.47</ele>
        <time>2022-07-11T06:27:45Z</time>
      </trkpt>
      <trkpt lat="46.9582" lon="5.85775">
        <ele>327.47</ele>
        <time>2022-07-11T06:27:59Z</time>
      </trkpt>
      <trkpt lat="46.95827" lon="5.85745">
        <ele>326.99</ele>
        <time>2022-07-11T06:28:08Z</time>
      </trkpt>
      <trkpt lat="46.95827" lon="5.85742">
        <ele>326.99</ele>
        <time>2022-07-11T06:28:09Z</time>
      </trkpt>
      <trkpt lat="46.95875" lon="5.85567">
        <ele>326.5</ele>
        <time>2022-07-11T06:28:24Z</time>
      </trkpt>
      <trkpt lat="46.9591" lon="5.85395">
        <ele>326.02</ele>
        <time>2022-07-11T06:28:40Z</time>
      </trkpt>
      <trkpt lat="46.95921" lon="5.85293">
        <ele>325.54</ele>
        <time>2022-07-11T06:28:53Z</time>
      </trkpt>
      <trkpt lat="46.95932" lon="5.85161">
        <ele>325.54</ele>
        <time>2022-07-11T06:29:11Z</time>
      </trkpt>
      <trkpt lat="46.95939" lon="5.8502">
        <ele>325.06</ele>
        <time>2022-07-11T06:29:30Z</time>
      </trkpt>
      <trkpt lat="46.95948" lon="5.84938">
        <ele>327.95</ele>
        <time>2022-07-11T06:29:45Z</time>
      </trkpt>
      <trkpt lat="46.95951" lon="5.84892">
        <ele>329.87</ele>
        <time>2022-07-11T06:29:56Z</time>
      </trkpt>
      <trkpt lat="46.95951" lon="5.84824">
        <ele>331.79</ele>
        <time>2022-07-11T06:30:10Z</time>
      </trkpt>
      <trkpt lat="46.95947" lon="5.84735">
        <ele>332.27</ele>
        <time>2022-07-11T06:30:25Z</time>
      </trkpt>
      <trkpt lat="46.95946" lon="5.84686">
        <ele>332.27</ele>
        <time>2022-07-11T06:30:33Z</time>
      </trkpt>
      <trkpt lat="46.9594" lon="5.84557">
        <ele>331.79</ele>
        <time>2022-07-11T06:30:52Z</time>
      </trkpt>
      <trkpt lat="46.95935" lon="5.84482">
        <ele>329.87</ele>
        <time>2022-07-11T06:31:02Z</time>
      </trkpt>
      <trkpt lat="46.95932" lon="5.84454">
        <ele>329.39</ele>
        <time>2022-07-11T06:31:05Z</time>
      </trkpt>
      <trkpt lat="46.95927" lon="5.84436">
        <ele>328.43</ele>
        <time>2022-07-11T06:31:07Z</time>
      </trkpt>
      <trkpt lat="46.95912" lon="5.84388">
        <ele>326.99</ele>
        <time>2022-07-11T06:31:12Z</time>
      </trkpt>
      <trkpt lat="46.95905" lon="5.84247">
        <ele>326.02</ele>
        <time>2022-07-11T06:31:28Z</time>
      </trkpt>
      <trkpt lat="46.95897" lon="5.84116">
        <ele>326.99</ele>
        <time>2022-07-11T06:31:46Z</time>
      </trkpt>
      <trkpt lat="46.95898" lon="5.84103">
        <ele>326.99</ele>
        <time>2022-07-11T06:31:48Z</time>
      </trkpt>
      <trkpt lat="46.95902" lon="5.84077">
        <ele>327.47</ele>
        <time>2022-07-11T06:31:52Z</time>
      </trkpt>
      <trkpt lat="46.95908" lon="5.83976">
        <ele>329.87</ele>
        <time>2022-07-11T06:32:10Z</time>
      </trkpt>
      <trkpt lat="46.95917" lon="5.83901">
        <ele>331.31</ele>
        <time>2022-07-11T06:32:25Z</time>
      </trkpt>
      <trkpt lat="46.95925" lon="5.83823">
        <ele>333.71</ele>
        <time>2022-07-11T06:32:43Z</time>
      </trkpt>
      <trkpt lat="46.95933" lon="5.83745">
        <ele>335.64</ele>
        <time>2022-07-11T06:33:01Z</time>
      </trkpt>
      <trkpt lat="46.95939" lon="5.83677">
        <ele>338.52</ele>
        <time>2022-07-11T06:33:18Z</time>
      </trkpt>
      <trkpt lat="46.95927" lon="5.83644">
        <ele>339</ele>
        <time>2022-07-11T06:33:31Z</time>
      </trkpt>
      <trkpt lat="46.95901" lon="5.83625">
        <ele>339.48</ele>
        <time>2022-07-11T06:33:45Z</time>
      </trkpt>
      <trkpt lat="46.95858" lon="5.83608">
        <ele>341.41</ele>
        <time>2022-07-11T06:34:02Z</time>
      </trkpt>
      <trkpt lat="46.95806" lon="5.836">
        <ele>342.85</ele>
        <time>2022-07-11T06:34:20Z</time>
      </trkpt>
      <trkpt lat="46.95762" lon="5.83598">
        <ele>343.81</ele>
        <time>2022-07-11T06:34:36Z</time>
      </trkpt>
      <trkpt lat="46.95717" lon="5.83598">
        <ele>346.21</ele>
        <time>2022-07-11T06:34:53Z</time>
      </trkpt>
      <trkpt lat="46.95662" lon="5.8359">
        <ele>348.13</ele>
        <time>2022-07-11T06:35:13Z</time>
      </trkpt>
      <trkpt lat="46.95632" lon="5.83544">
        <ele>350.06</ele>
        <time>2022-07-11T06:35:30Z</time>
      </trkpt>
      <trkpt lat="46.95603" lon="5.83507">
        <ele>352.94</ele>
        <time>2022-07-11T06:35:46Z</time>
      </trkpt>
      <trkpt lat="46.9557" lon="5.83491">
        <ele>355.83</ele>
        <time>2022-07-11T06:36:01Z</time>
      </trkpt>
      <trkpt lat="46.95524" lon="5.83484">
        <ele>357.27</ele>
        <time>2022-07-11T06:36:19Z</time>
      </trkpt>
      <trkpt lat="46.95485" lon="5.83482">
        <ele>357.27</ele>
        <time>2022-07-11T06:36:33Z</time>
      </trkpt>
      <trkpt lat="46.95421" lon="5.83488">
        <ele>355.83</ele>
        <time>2022-07-11T06:36:50Z</time>
      </trkpt>
      <trkpt lat="46.9535" lon="5.8346">
        <ele>352.94</ele>
        <time>2022-07-11T06:37:03Z</time>
      </trkpt>
      <trkpt lat="46.95281" lon="5.83418">
        <ele>349.58</ele>
        <time>2022-07-11T06:37:13Z</time>
      </trkpt>
      <trkpt lat="46.95183" lon="5.83357">
        <ele>345.73</ele>
        <time>2022-07-11T06:37:27Z</time>
      </trkpt>
      <trkpt lat="46.95145" lon="5.83332">
        <ele>343.81</ele>
        <time>2022-07-11T06:37:32Z</time>
      </trkpt>
      <trkpt lat="46.95123" lon="5.83315">
        <ele>341.89</ele>
        <time>2022-07-11T06:37:35Z</time>
      </trkpt>
      <trkpt lat="46.95102" lon="5.83297">
        <ele>340.92</ele>
        <time>2022-07-11T06:37:38Z</time>
      </trkpt>
      <trkpt lat="46.95096" lon="5.83291">
        <ele>340.92</ele>
        <time>2022-07-11T06:37:39Z</time>
      </trkpt>
      <trkpt lat="46.95092" lon="5.83283">
        <ele>340.44</ele>
        <time>2022-07-11T06:37:40Z</time>
      </trkpt>
      <trkpt lat="46.95089" lon="5.83275">
        <ele>339.48</ele>
        <time>2022-07-11T06:37:41Z</time>
      </trkpt>
      <trkpt lat="46.95086" lon="5.83267">
        <ele>339.48</ele>
        <time>2022-07-11T06:37:42Z</time>
      </trkpt>
      <trkpt lat="46.95085" lon="5.83259">
        <ele>339.48</ele>
        <time>2022-07-11T06:37:43Z</time>
      </trkpt>
      <trkpt lat="46.95084" lon="5.8325">
        <ele>339.48</ele>
        <time>2022-07-11T06:37:44Z</time>
      </trkpt>
      <trkpt lat="46.95082" lon="5.83243">
        <ele>339</ele>
        <time>2022-07-11T06:37:45Z</time>
      </trkpt>
      <trkpt lat="46.95079" lon="5.83236">
        <ele>338.52</ele>
        <time>2022-07-11T06:37:46Z</time>
      </trkpt>
      <trkpt lat="46.95075" lon="5.83231">
        <ele>339</ele>
        <time>2022-07-11T06:37:47Z</time>
      </trkpt>
      <trkpt lat="46.95071" lon="5.83226">
        <ele>338.52</ele>
        <time>2022-07-11T06:37:48Z</time>
      </trkpt>
      <trkpt lat="46.95069" lon="5.83221">
        <ele>339</ele>
        <time>2022-07-11T06:37:49Z</time>
      </trkpt>
      <trkpt lat="46.95068" lon="5.83217">
        <ele>339</ele>
        <time>2022-07-11T06:37:50Z</time>
      </trkpt>
      <trkpt lat="46.95067" lon="5.83213">
        <ele>339.48</ele>
        <time>2022-07-11T06:37:51Z</time>
      </trkpt>
      <trkpt lat="46.95067" lon="5.83211">
        <ele>339.48</ele>
        <time>2022-07-11T06:37:52Z</time>
      </trkpt>
      <trkpt lat="46.95069" lon="5.83182">
        <ele>339.48</ele>
        <time>2022-07-11T06:38:05Z</time>
      </trkpt>
      <trkpt lat="46.9507" lon="5.8318">
        <ele>339.48</ele>
        <time>2022-07-11T06:38:06Z</time>
      </trkpt>
      <trkpt lat="46.95083" lon="5.83132">
        <ele>340.44</ele>
        <time>2022-07-11T06:38:22Z</time>
      </trkpt>
      <trkpt lat="46.95091" lon="5.83119">
        <ele>341.41</ele>
        <time>2022-07-11T06:38:27Z</time>
      </trkpt>
      <trkpt lat="46.95092" lon="5.83118">
        <ele>341.41</ele>
        <time>2022-07-11T06:38:28Z</time>
      </trkpt>
      <trkpt lat="46.95094" lon="5.83117">
        <ele>341.89</ele>
        <time>2022-07-11T06:38:29Z</time>
      </trkpt>
      <trkpt lat="46.95109" lon="5.83115">
        <ele>341.89</ele>
        <time>2022-07-11T06:38:36Z</time>
      </trkpt>
      <trkpt lat="46.9511" lon="5.83112">
        <ele>342.37</ele>
        <time>2022-07-11T06:38:37Z</time>
      </trkpt>
      <trkpt lat="46.95112" lon="5.83108">
        <ele>341.89</ele>
        <time>2022-07-11T06:38:38Z</time>
      </trkpt>
      <trkpt lat="46.95112" lon="5.83104">
        <ele>342.37</ele>
        <time>2022-07-11T06:38:39Z</time>
      </trkpt>
      <trkpt lat="46.95113" lon="5.831">
        <ele>342.85</ele>
        <time>2022-07-11T06:38:40Z</time>
      </trkpt>
      <trkpt lat="46.95114" lon="5.83096">
        <ele>342.37</ele>
        <time>2022-07-11T06:38:41Z</time>
      </trkpt>
      <trkpt lat="46.95127" lon="5.8304">
        <ele>343.81</ele>
        <time>2022-07-11T06:38:56Z</time>
      </trkpt>
      <trkpt lat="46.95139" lon="5.82996">
        <ele>345.73</ele>
        <time>2022-07-11T06:39:10Z</time>
      </trkpt>
      <trkpt lat="46.95149" lon="5.82954">
        <ele>347.65</ele>
        <time>2022-07-11T06:39:26Z</time>
      </trkpt>
      <trkpt lat="46.95167" lon="5.82904">
        <ele>351.02</ele>
        <time>2022-07-11T06:39:44Z</time>
      </trkpt>
      <trkpt lat="46.95186" lon="5.8285">
        <ele>351.98</ele>
        <time>2022-07-11T06:40:02Z</time>
      </trkpt>
      <trkpt lat="46.95215" lon="5.82813">
        <ele>352.46</ele>
        <time>2022-07-11T06:40:16Z</time>
      </trkpt>
      <trkpt lat="46.95245" lon="5.82819">
        <ele>351.98</ele>
        <time>2022-07-11T06:40:24Z</time>
      </trkpt>
      <trkpt lat="46.95304" lon="5.8283">
        <ele>351.5</ele>
        <time>2022-07-11T06:40:39Z</time>
      </trkpt>
      <trkpt lat="46.95378" lon="5.8281">
        <ele>348.62</ele>
        <time>2022-07-11T06:40:58Z</time>
      </trkpt>
      <trkpt lat="46.95447" lon="5.82771">
        <ele>345.25</ele>
        <time>2022-07-11T06:41:14Z</time>
      </trkpt>
      <trkpt lat="46.95521" lon="5.82727">
        <ele>344.77</ele>
        <time>2022-07-11T06:41:29Z</time>
      </trkpt>
      <trkpt lat="46.95561" lon="5.8269">
        <ele>346.69</ele>
        <time>2022-07-11T06:41:45Z</time>
      </trkpt>
      <trkpt lat="46.95586" lon="5.82632">
        <ele>348.13</ele>
        <time>2022-07-11T06:42:01Z</time>
      </trkpt>
      <trkpt lat="46.95604" lon="5.82571">
        <ele>348.13</ele>
        <time>2022-07-11T06:42:15Z</time>
      </trkpt>
      <trkpt lat="46.95615" lon="5.82507">
        <ele>349.58</ele>
        <time>2022-07-11T06:42:31Z</time>
      </trkpt>
      <trkpt lat="46.95628" lon="5.82428">
        <ele>350.06</ele>
        <time>2022-07-11T06:42:50Z</time>
      </trkpt>
      <trkpt lat="46.9564" lon="5.82349">
        <ele>351.02</ele>
        <time>2022-07-11T06:43:07Z</time>
      </trkpt>
      <trkpt lat="46.95645" lon="5.82324">
        <ele>354.38</ele>
        <time>2022-07-11T06:43:19Z</time>
      </trkpt>
      <trkpt lat="46.95647" lon="5.82309">
        <ele>355.34</ele>
        <time>2022-07-11T06:43:26Z</time>
      </trkpt>
      <trkpt lat="46.95647" lon="5.82308">
        <ele>355.83</ele>
        <time>2022-07-11T06:43:27Z</time>
      </trkpt>
      <trkpt lat="46.95647" lon="5.82306">
        <ele>355.83</ele>
        <time>2022-07-11T06:43:28Z</time>
      </trkpt>
      <trkpt lat="46.95649" lon="5.82291">
        <ele>358.23</ele>
        <time>2022-07-11T06:43:37Z</time>
      </trkpt>
      <trkpt lat="46.9563" lon="5.82272">
        <ele>359.67</ele>
        <time>2022-07-11T06:43:52Z</time>
      </trkpt>
      <trkpt lat="46.95604" lon="5.82261">
        <ele>360.63</ele>
        <time>2022-07-11T06:44:07Z</time>
      </trkpt>
      <trkpt lat="46.95584" lon="5.82251">
        <ele>362.07</ele>
        <time>2022-07-11T06:44:21Z</time>
      </trkpt>
      <trkpt lat="46.95553" lon="5.8223">
        <ele>363.04</ele>
        <time>2022-07-11T06:44:38Z</time>
      </trkpt>
      <trkpt lat="46.95511" lon="5.82197">
        <ele>363.04</ele>
        <time>2022-07-11T06:44:54Z</time>
      </trkpt>
      <trkpt lat="46.95464" lon="5.82162">
        <ele>363.52</ele>
        <time>2022-07-11T06:45:10Z</time>
      </trkpt>
      <trkpt lat="46.95413" lon="5.82125">
        <ele>364.48</ele>
        <time>2022-07-11T06:45:27Z</time>
      </trkpt>
      <trkpt lat="46.95377" lon="5.82085">
        <ele>365.92</ele>
        <time>2022-07-11T06:45:43Z</time>
      </trkpt>
      <trkpt lat="46.95336" lon="5.82039">
        <ele>367.36</ele>
        <time>2022-07-11T06:45:59Z</time>
      </trkpt>
      <trkpt lat="46.95279" lon="5.82029">
        <ele>367.84</ele>
        <time>2022-07-11T06:46:16Z</time>
      </trkpt>
      <trkpt lat="46.9525" lon="5.81986">
        <ele>369.28</ele>
        <time>2022-07-11T06:46:31Z</time>
      </trkpt>
      <trkpt lat="46.95249" lon="5.81926">
        <ele>369.76</ele>
        <time>2022-07-11T06:46:44Z</time>
      </trkpt>
      <trkpt lat="46.9525" lon="5.81887">
        <ele>369.28</ele>
        <time>2022-07-11T06:46:52Z</time>
      </trkpt>
      <trkpt lat="46.95252" lon="5.81884">
        <ele>369.28</ele>
        <time>2022-07-11T06:46:53Z</time>
      </trkpt>
      <trkpt lat="46.95254" lon="5.81881">
        <ele>369.76</ele>
        <time>2022-07-11T06:46:54Z</time>
      </trkpt>
      <trkpt lat="46.95257" lon="5.81881">
        <ele>369.76</ele>
        <time>2022-07-11T06:46:55Z</time>
      </trkpt>
      <trkpt lat="46.9526" lon="5.81881">
        <ele>369.76</ele>
        <time>2022-07-11T06:46:56Z</time>
      </trkpt>
      <trkpt lat="46.95276" lon="5.81877">
        <ele>370.73</ele>
        <time>2022-07-11T06:47:01Z</time>
      </trkpt>
      <trkpt lat="46.95278" lon="5.81873">
        <ele>370.73</ele>
        <time>2022-07-11T06:47:02Z</time>
      </trkpt>
      <trkpt lat="46.9528" lon="5.81868">
        <ele>370.73</ele>
        <time>2022-07-11T06:47:03Z</time>
      </trkpt>
      <trkpt lat="46.95281" lon="5.81862">
        <ele>371.21</ele>
        <time>2022-07-11T06:47:04Z</time>
      </trkpt>
      <trkpt lat="46.95281" lon="5.81856">
        <ele>370.73</ele>
        <time>2022-07-11T06:47:05Z</time>
      </trkpt>
      <trkpt lat="46.95288" lon="5.818">
        <ele>370.24</ele>
        <time>2022-07-11T06:47:14Z</time>
      </trkpt>
      <trkpt lat="46.95305" lon="5.81722">
        <ele>369.76</ele>
        <time>2022-07-11T06:47:27Z</time>
      </trkpt>
      <trkpt lat="46.95308" lon="5.81717">
        <ele>370.24</ele>
        <time>2022-07-11T06:47:28Z</time>
      </trkpt>
      <trkpt lat="46.95311" lon="5.81711">
        <ele>368.8</ele>
        <time>2022-07-11T06:47:29Z</time>
      </trkpt>
      <trkpt lat="46.95314" lon="5.81707">
        <ele>369.76</ele>
        <time>2022-07-11T06:47:30Z</time>
      </trkpt>
      <trkpt lat="46.95318" lon="5.81703">
        <ele>369.28</ele>
        <time>2022-07-11T06:47:31Z</time>
      </trkpt>
      <trkpt lat="46.95375" lon="5.81653">
        <ele>370.24</ele>
        <time>2022-07-11T06:47:47Z</time>
      </trkpt>
      <trkpt lat="46.95394" lon="5.81642">
        <ele>370.24</ele>
        <time>2022-07-11T06:47:52Z</time>
      </trkpt>
      <trkpt lat="46.95398" lon="5.8164">
        <ele>370.24</ele>
        <time>2022-07-11T06:47:53Z</time>
      </trkpt>
      <trkpt lat="46.95414" lon="5.81635">
        <ele>369.76</ele>
        <time>2022-07-11T06:47:57Z</time>
      </trkpt>
      <trkpt lat="46.95418" lon="5.81635">
        <ele>369.76</ele>
        <time>2022-07-11T06:47:58Z</time>
      </trkpt>
      <trkpt lat="46.95465" lon="5.81642">
        <ele>369.76</ele>
        <time>2022-07-11T06:48:12Z</time>
      </trkpt>
      <trkpt lat="46.95511" lon="5.81659">
        <ele>368.8</ele>
        <time>2022-07-11T06:48:24Z</time>
      </trkpt>
      <trkpt lat="46.95515" lon="5.81661">
        <ele>368.8</ele>
        <time>2022-07-11T06:48:25Z</time>
      </trkpt>
      <trkpt lat="46.95519" lon="5.81663">
        <ele>368.32</ele>
        <time>2022-07-11T06:48:26Z</time>
      </trkpt>
      <trkpt lat="46.95567" lon="5.8166">
        <ele>370.24</ele>
        <time>2022-07-11T06:48:39Z</time>
      </trkpt>
      <trkpt lat="46.95615" lon="5.81649">
        <ele>372.65</ele>
        <time>2022-07-11T06:48:54Z</time>
      </trkpt>
      <trkpt lat="46.95677" lon="5.81639">
        <ele>371.21</ele>
        <time>2022-07-11T06:49:12Z</time>
      </trkpt>
      <trkpt lat="46.95739" lon="5.81639">
        <ele>367.36</ele>
        <time>2022-07-11T06:49:23Z</time>
      </trkpt>
      <trkpt lat="46.95779" lon="5.81639">
        <ele>365.44</ele>
        <time>2022-07-11T06:49:29Z</time>
      </trkpt>
      <trkpt lat="46.95794" lon="5.81639">
        <ele>364.48</ele>
        <time>2022-07-11T06:49:32Z</time>
      </trkpt>
      <trkpt lat="46.95805" lon="5.81641">
        <ele>363.52</ele>
        <time>2022-07-11T06:49:34Z</time>
      </trkpt>
      <trkpt lat="46.95852" lon="5.81644">
        <ele>360.63</ele>
        <time>2022-07-11T06:49:41Z</time>
      </trkpt>
      <trkpt lat="46.95899" lon="5.81642">
        <ele>358.71</ele>
        <time>2022-07-11T06:49:47Z</time>
      </trkpt>
      <trkpt lat="46.95906" lon="5.81639">
        <ele>358.71</ele>
        <time>2022-07-11T06:49:48Z</time>
      </trkpt>
      <trkpt lat="46.95913" lon="5.81635">
        <ele>358.23</ele>
        <time>2022-07-11T06:49:49Z</time>
      </trkpt>
      <trkpt lat="46.9592" lon="5.8163">
        <ele>357.75</ele>
        <time>2022-07-11T06:49:50Z</time>
      </trkpt>
      <trkpt lat="46.95927" lon="5.81624">
        <ele>357.75</ele>
        <time>2022-07-11T06:49:51Z</time>
      </trkpt>
      <trkpt lat="46.9598" lon="5.81568">
        <ele>353.42</ele>
        <time>2022-07-11T06:49:59Z</time>
      </trkpt>
      <trkpt lat="46.95987" lon="5.81561">
        <ele>353.9</ele>
        <time>2022-07-11T06:50:00Z</time>
      </trkpt>
      <trkpt lat="46.96031" lon="5.81516">
        <ele>350.06</ele>
        <time>2022-07-11T06:50:06Z</time>
      </trkpt>
      <trkpt lat="46.96081" lon="5.81486">
        <ele>346.69</ele>
        <time>2022-07-11T06:50:12Z</time>
      </trkpt>
      <trkpt lat="46.9609" lon="5.81482">
        <ele>346.69</ele>
        <time>2022-07-11T06:50:13Z</time>
      </trkpt>
      <trkpt lat="46.96099" lon="5.81479">
        <ele>346.69</ele>
        <time>2022-07-11T06:50:14Z</time>
      </trkpt>
      <trkpt lat="46.96108" lon="5.81477">
        <ele>347.17</ele>
        <time>2022-07-11T06:50:15Z</time>
      </trkpt>
      <trkpt lat="46.96154" lon="5.81468">
        <ele>342.85</ele>
        <time>2022-07-11T06:50:20Z</time>
      </trkpt>
      <trkpt lat="46.96182" lon="5.81463">
        <ele>341.89</ele>
        <time>2022-07-11T06:50:23Z</time>
      </trkpt>
      <trkpt lat="46.96201" lon="5.81464">
        <ele>340.44</ele>
        <time>2022-07-11T06:50:25Z</time>
      </trkpt>
      <trkpt lat="46.9621" lon="5.81466">
        <ele>340.44</ele>
        <time>2022-07-11T06:50:26Z</time>
      </trkpt>
      <trkpt lat="46.9622" lon="5.81469">
        <ele>339.48</ele>
        <time>2022-07-11T06:50:27Z</time>
      </trkpt>
      <trkpt lat="46.96228" lon="5.81473">
        <ele>338.04</ele>
        <time>2022-07-11T06:50:28Z</time>
      </trkpt>
      <trkpt lat="46.96237" lon="5.81478">
        <ele>337.56</ele>
        <time>2022-07-11T06:50:29Z</time>
      </trkpt>
      <trkpt lat="46.96246" lon="5.81484">
        <ele>337.08</ele>
        <time>2022-07-11T06:50:30Z</time>
      </trkpt>
      <trkpt lat="46.96263" lon="5.81497">
        <ele>335.64</ele>
        <time>2022-07-11T06:50:32Z</time>
      </trkpt>
      <trkpt lat="46.96281" lon="5.8151">
        <ele>334.2</ele>
        <time>2022-07-11T06:50:34Z</time>
      </trkpt>
      <trkpt lat="46.96318" lon="5.81539">
        <ele>330.35</ele>
        <time>2022-07-11T06:50:38Z</time>
      </trkpt>
      <trkpt lat="46.96327" lon="5.81545">
        <ele>330.35</ele>
        <time>2022-07-11T06:50:39Z</time>
      </trkpt>
      <trkpt lat="46.9636" lon="5.81567">
        <ele>326.99</ele>
        <time>2022-07-11T06:50:43Z</time>
      </trkpt>
      <trkpt lat="46.96367" lon="5.81572">
        <ele>327.47</ele>
        <time>2022-07-11T06:50:44Z</time>
      </trkpt>
      <trkpt lat="46.96387" lon="5.81584">
        <ele>326.5</ele>
        <time>2022-07-11T06:50:47Z</time>
      </trkpt>
      <trkpt lat="46.96392" lon="5.81588">
        <ele>326.02</ele>
        <time>2022-07-11T06:50:48Z</time>
      </trkpt>
      <trkpt lat="46.964" lon="5.81599">
        <ele>325.54</ele>
        <time>2022-07-11T06:50:50Z</time>
      </trkpt>
      <trkpt lat="46.96402" lon="5.81606">
        <ele>325.06</ele>
        <time>2022-07-11T06:50:51Z</time>
      </trkpt>
      <trkpt lat="46.96404" lon="5.81613">
        <ele>325.54</ele>
        <time>2022-07-11T06:50:52Z</time>
      </trkpt>
      <trkpt lat="46.96406" lon="5.81665">
        <ele>322.66</ele>
        <time>2022-07-11T06:51:01Z</time>
      </trkpt>
      <trkpt lat="46.96407" lon="5.81715">
        <ele>320.74</ele>
        <time>2022-07-11T06:51:12Z</time>
      </trkpt>
      <trkpt lat="46.96408" lon="5.81732">
        <ele>320.26</ele>
        <time>2022-07-11T06:51:15Z</time>
      </trkpt>
      <trkpt lat="46.96413" lon="5.81751">
        <ele>319.3</ele>
        <time>2022-07-11T06:51:18Z</time>
      </trkpt>
      <trkpt lat="46.96437" lon="5.81812">
        <ele>316.41</ele>
        <time>2022-07-11T06:51:26Z</time>
      </trkpt>
      <trkpt lat="46.96454" lon="5.81856">
        <ele>314.49</ele>
        <time>2022-07-11T06:51:31Z</time>
      </trkpt>
      <trkpt lat="46.96456" lon="5.81865">
        <ele>314.01</ele>
        <time>2022-07-11T06:51:32Z</time>
      </trkpt>
      <trkpt lat="46.96458" lon="5.81875">
        <ele>313.53</ele>
        <time>2022-07-11T06:51:33Z</time>
      </trkpt>
      <trkpt lat="46.96465" lon="5.81923">
        <ele>310.64</ele>
        <time>2022-07-11T06:51:37Z</time>
      </trkpt>
      <trkpt lat="46.9647" lon="5.81948">
        <ele>309.2</ele>
        <time>2022-07-11T06:51:39Z</time>
      </trkpt>
      <trkpt lat="46.96478" lon="5.81971">
        <ele>308.24</ele>
        <time>2022-07-11T06:51:41Z</time>
      </trkpt>
      <trkpt lat="46.96482" lon="5.81981">
        <ele>308.72</ele>
        <time>2022-07-11T06:51:42Z</time>
      </trkpt>
      <trkpt lat="46.96489" lon="5.8199">
        <ele>308.72</ele>
        <time>2022-07-11T06:51:43Z</time>
      </trkpt>
      <trkpt lat="46.96498" lon="5.82">
        <ele>307.76</ele>
        <time>2022-07-11T06:51:44Z</time>
      </trkpt>
      <trkpt lat="46.96506" lon="5.82008">
        <ele>308.24</ele>
        <time>2022-07-11T06:51:45Z</time>
      </trkpt>
      <trkpt lat="46.96522" lon="5.82022">
        <ele>307.76</ele>
        <time>2022-07-11T06:51:47Z</time>
      </trkpt>
      <trkpt lat="46.96529" lon="5.82025">
        <ele>308.24</ele>
        <time>2022-07-11T06:51:48Z</time>
      </trkpt>
      <trkpt lat="46.96535" lon="5.82027">
        <ele>308.24</ele>
        <time>2022-07-11T06:51:49Z</time>
      </trkpt>
      <trkpt lat="46.96541" lon="5.82027">
        <ele>307.76</ele>
        <time>2022-07-11T06:51:50Z</time>
      </trkpt>
      <trkpt lat="46.96547" lon="5.82024">
        <ele>307.28</ele>
        <time>2022-07-11T06:51:51Z</time>
      </trkpt>
      <trkpt lat="46.96553" lon="5.82021">
        <ele>307.28</ele>
        <time>2022-07-11T06:51:52Z</time>
      </trkpt>
      <trkpt lat="46.96558" lon="5.82017">
        <ele>307.28</ele>
        <time>2022-07-11T06:51:53Z</time>
      </trkpt>
      <trkpt lat="46.96563" lon="5.82012">
        <ele>307.76</ele>
        <time>2022-07-11T06:51:54Z</time>
      </trkpt>
      <trkpt lat="46.96567" lon="5.82006">
        <ele>307.76</ele>
        <time>2022-07-11T06:51:55Z</time>
      </trkpt>
      <trkpt lat="46.96571" lon="5.82">
        <ele>307.28</ele>
        <time>2022-07-11T06:51:56Z</time>
      </trkpt>
      <trkpt lat="46.96575" lon="5.81994">
        <ele>307.28</ele>
        <time>2022-07-11T06:51:57Z</time>
      </trkpt>
      <trkpt lat="46.96579" lon="5.81989">
        <ele>307.28</ele>
        <time>2022-07-11T06:51:58Z</time>
      </trkpt>
      <trkpt lat="46.96623" lon="5.81964">
        <ele>307.76</ele>
        <time>2022-07-11T06:52:10Z</time>
      </trkpt>
      <trkpt lat="46.96631" lon="5.81964">
        <ele>307.76</ele>
        <time>2022-07-11T06:52:14Z</time>
      </trkpt>
      <trkpt lat="46.96632" lon="5.81963">
        <ele>307.76</ele>
        <time>2022-07-11T06:52:15Z</time>
      </trkpt>
      <trkpt lat="46.96633" lon="5.81961">
        <ele>308.24</ele>
        <time>2022-07-11T06:52:16Z</time>
      </trkpt>
      <trkpt lat="46.96641" lon="5.81953">
        <ele>309.2</ele>
        <time>2022-07-11T06:52:22Z</time>
      </trkpt>
      <trkpt lat="46.96643" lon="5.81951">
        <ele>309.68</ele>
        <time>2022-07-11T06:52:24Z</time>
      </trkpt>
      <trkpt lat="46.96649" lon="5.81944">
        <ele>310.16</ele>
        <time>2022-07-11T06:52:30Z</time>
      </trkpt>
      <trkpt lat="46.96652" lon="5.81942">
        <ele>310.64</ele>
        <time>2022-07-11T06:52:32Z</time>
      </trkpt>
      <trkpt lat="46.96653" lon="5.8194">
        <ele>310.64</ele>
        <time>2022-07-11T06:52:33Z</time>
      </trkpt>
      <trkpt lat="46.96654" lon="5.81939">
        <ele>311.12</ele>
        <time>2022-07-11T06:52:34Z</time>
      </trkpt>
      <trkpt lat="46.96656" lon="5.81938">
        <ele>310.16</ele>
        <time>2022-07-11T06:52:35Z</time>
      </trkpt>
      <trkpt lat="46.96657" lon="5.81936">
        <ele>310.16</ele>
        <time>2022-07-11T06:52:36Z</time>
      </trkpt>
      <trkpt lat="46.96677" lon="5.81904">
        <ele>310.16</ele>
        <time>2022-07-11T06:52:50Z</time>
      </trkpt>
      <trkpt lat="46.96713" lon="5.81848">
        <ele>309.68</ele>
        <time>2022-07-11T06:53:06Z</time>
      </trkpt>
      <trkpt lat="46.96773" lon="5.8177">
        <ele>309.2</ele>
        <time>2022-07-11T06:53:21Z</time>
      </trkpt>
      <trkpt lat="46.96863" lon="5.81686">
        <ele>307.76</ele>
        <time>2022-07-11T06:53:39Z</time>
      </trkpt>
      <trkpt lat="46.96963" lon="5.81617">
        <ele>306.8</ele>
        <time>2022-07-11T06:53:57Z</time>
      </trkpt>
      <trkpt lat="46.9707" lon="5.81571">
        <ele>304.88</ele>
        <time>2022-07-11T06:54:16Z</time>
      </trkpt>
      <trkpt lat="46.97171" lon="5.8153">
        <ele>303.91</ele>
        <time>2022-07-11T06:54:35Z</time>
      </trkpt>
      <trkpt lat="46.97196" lon="5.81519">
        <ele>303.43</ele>
        <time>2022-07-11T06:54:40Z</time>
      </trkpt>
      <trkpt lat="46.97251" lon="5.81469">
        <ele>301.51</ele>
        <time>2022-07-11T06:54:55Z</time>
      </trkpt>
      <trkpt lat="46.97255" lon="5.81464">
        <ele>301.03</ele>
        <time>2022-07-11T06:54:56Z</time>
      </trkpt>
      <trkpt lat="46.97268" lon="5.81457">
        <ele>298.63</ele>
        <time>2022-07-11T06:55:00Z</time>
      </trkpt>
      <trkpt lat="46.97271" lon="5.81459">
        <ele>298.63</ele>
        <time>2022-07-11T06:55:01Z</time>
      </trkpt>
      <trkpt lat="46.97272" lon="5.81463">
        <ele>298.15</ele>
        <time>2022-07-11T06:55:02Z</time>
      </trkpt>
      <trkpt lat="46.97274" lon="5.81468">
        <ele>298.63</ele>
        <time>2022-07-11T06:55:03Z</time>
      </trkpt>
      <trkpt lat="46.97283" lon="5.81494">
        <ele>298.15</ele>
        <time>2022-07-11T06:55:09Z</time>
      </trkpt>
      <trkpt lat="46.97286" lon="5.81496">
        <ele>297.67</ele>
        <time>2022-07-11T06:55:10Z</time>
      </trkpt>
      <trkpt lat="46.97289" lon="5.81496">
        <ele>297.67</ele>
        <time>2022-07-11T06:55:11Z</time>
      </trkpt>
      <trkpt lat="46.97291" lon="5.81494">
        <ele>297.67</ele>
        <time>2022-07-11T06:55:12Z</time>
      </trkpt>
      <trkpt lat="46.97293" lon="5.8149">
        <ele>298.15</ele>
        <time>2022-07-11T06:55:13Z</time>
      </trkpt>
      <trkpt lat="46.97296" lon="5.81487">
        <ele>298.15</ele>
        <time>2022-07-11T06:55:14Z</time>
      </trkpt>
      <trkpt lat="46.9735" lon="5.81427">
        <ele>297.67</ele>
        <time>2022-07-11T06:55:29Z</time>
      </trkpt>
      <trkpt lat="46.9741" lon="5.81361">
        <ele>295.74</ele>
        <time>2022-07-11T06:55:44Z</time>
      </trkpt>
      <trkpt lat="46.97476" lon="5.8129">
        <ele>292.38</ele>
        <time>2022-07-11T06:55:58Z</time>
      </trkpt>
      <trkpt lat="46.97553" lon="5.81196">
        <ele>293.34</ele>
        <time>2022-07-11T06:56:17Z</time>
      </trkpt>
      <trkpt lat="46.97598" lon="5.81145">
        <ele>294.78</ele>
        <time>2022-07-11T06:56:33Z</time>
      </trkpt>
      <trkpt lat="46.97648" lon="5.81063">
        <ele>292.86</ele>
        <time>2022-07-11T06:56:50Z</time>
      </trkpt>
      <trkpt lat="46.97691" lon="5.80963">
        <ele>294.3</ele>
        <time>2022-07-11T06:57:09Z</time>
      </trkpt>
      <trkpt lat="46.97725" lon="5.80888">
        <ele>295.26</ele>
        <time>2022-07-11T06:57:26Z</time>
      </trkpt>
      <trkpt lat="46.97749" lon="5.80837">
        <ele>296.7</ele>
        <time>2022-07-11T06:57:40Z</time>
      </trkpt>
      <trkpt lat="46.97771" lon="5.80781">
        <ele>299.59</ele>
        <time>2022-07-11T06:57:55Z</time>
      </trkpt>
      <trkpt lat="46.9779" lon="5.80729">
        <ele>301.51</ele>
        <time>2022-07-11T06:58:11Z</time>
      </trkpt>
      <trkpt lat="46.97792" lon="5.80671">
        <ele>301.51</ele>
        <time>2022-07-11T06:58:25Z</time>
      </trkpt>
      <trkpt lat="46.97784" lon="5.80648">
        <ele>301.03</ele>
        <time>2022-07-11T06:58:31Z</time>
      </trkpt>
      <trkpt lat="46.97785" lon="5.80645">
        <ele>301.51</ele>
        <time>2022-07-11T06:58:32Z</time>
      </trkpt>
      <trkpt lat="46.97786" lon="5.80643">
        <ele>301.99</ele>
        <time>2022-07-11T06:58:33Z</time>
      </trkpt>
      <trkpt lat="46.97788" lon="5.8064">
        <ele>301.51</ele>
        <time>2022-07-11T06:58:34Z</time>
      </trkpt>
      <trkpt lat="46.97789" lon="5.80637">
        <ele>301.99</ele>
        <time>2022-07-11T06:58:35Z</time>
      </trkpt>
      <trkpt lat="46.97789" lon="5.80633">
        <ele>301.51</ele>
        <time>2022-07-11T06:58:36Z</time>
      </trkpt>
      <trkpt lat="46.97787" lon="5.80629">
        <ele>301.51</ele>
        <time>2022-07-11T06:58:37Z</time>
      </trkpt>
      <trkpt lat="46.97786" lon="5.80625">
        <ele>301.99</ele>
        <time>2022-07-11T06:58:38Z</time>
      </trkpt>
      <trkpt lat="46.97772" lon="5.80568">
        <ele>301.51</ele>
        <time>2022-07-11T06:58:52Z</time>
      </trkpt>
      <trkpt lat="46.97784" lon="5.80528">
        <ele>303.43</ele>
        <time>2022-07-11T06:59:04Z</time>
      </trkpt>
      <trkpt lat="46.97784" lon="5.80481">
        <ele>306.32</ele>
        <time>2022-07-11T06:59:20Z</time>
      </trkpt>
      <trkpt lat="46.97762" lon="5.80439">
        <ele>306.32</ele>
        <time>2022-07-11T06:59:32Z</time>
      </trkpt>
      <trkpt lat="46.97738" lon="5.80409">
        <ele>303.91</ele>
        <time>2022-07-11T06:59:37Z</time>
      </trkpt>
      <trkpt lat="46.97732" lon="5.80401">
        <ele>302.47</ele>
        <time>2022-07-11T06:59:38Z</time>
      </trkpt>
      <trkpt lat="46.97728" lon="5.80393">
        <ele>302.47</ele>
        <time>2022-07-11T06:59:39Z</time>
      </trkpt>
      <trkpt lat="46.97723" lon="5.80384">
        <ele>302.47</ele>
        <time>2022-07-11T06:59:40Z</time>
      </trkpt>
      <trkpt lat="46.97719" lon="5.80375">
        <ele>301.99</ele>
        <time>2022-07-11T06:59:41Z</time>
      </trkpt>
      <trkpt lat="46.97716" lon="5.80365">
        <ele>301.99</ele>
        <time>2022-07-11T06:59:42Z</time>
      </trkpt>
      <trkpt lat="46.97712" lon="5.80356">
        <ele>302.47</ele>
        <time>2022-07-11T06:59:43Z</time>
      </trkpt>
      <trkpt lat="46.9771" lon="5.80347">
        <ele>301.99</ele>
        <time>2022-07-11T06:59:44Z</time>
      </trkpt>
      <trkpt lat="46.97708" lon="5.80338">
        <ele>301.51</ele>
        <time>2022-07-11T06:59:45Z</time>
      </trkpt>
      <trkpt lat="46.97698" lon="5.80256">
        <ele>302.47</ele>
        <time>2022-07-11T06:59:56Z</time>
      </trkpt>
      <trkpt lat="46.97698" lon="5.80212">
        <ele>302.47</ele>
        <time>2022-07-11T07:00:03Z</time>
      </trkpt>
      <trkpt lat="46.97709" lon="5.80088">
        <ele>302.95</ele>
        <time>2022-07-11T07:00:22Z</time>
      </trkpt>
      <trkpt lat="46.97726" lon="5.80008">
        <ele>303.91</ele>
        <time>2022-07-11T07:00:37Z</time>
      </trkpt>
      <trkpt lat="46.97734" lon="5.79972">
        <ele>304.88</ele>
        <time>2022-07-11T07:00:44Z</time>
      </trkpt>
      <trkpt lat="46.97734" lon="5.79966">
        <ele>304.88</ele>
        <time>2022-07-11T07:00:45Z</time>
      </trkpt>
      <trkpt lat="46.97744" lon="5.79896">
        <ele>301.51</ele>
        <time>2022-07-11T07:00:54Z</time>
      </trkpt>
      <trkpt lat="46.97749" lon="5.79876">
        <ele>300.55</ele>
        <time>2022-07-11T07:00:56Z</time>
      </trkpt>
      <trkpt lat="46.9776" lon="5.79832">
        <ele>297.18</ele>
        <time>2022-07-11T07:01:00Z</time>
      </trkpt>
      <trkpt lat="46.97766" lon="5.79807">
        <ele>295.74</ele>
        <time>2022-07-11T07:01:02Z</time>
      </trkpt>
      <trkpt lat="46.97809" lon="5.79728">
        <ele>295.74</ele>
        <time>2022-07-11T07:01:11Z</time>
      </trkpt>
      <trkpt lat="46.97852" lon="5.79657">
        <ele>292.38</ele>
        <time>2022-07-11T07:01:20Z</time>
      </trkpt>
      <trkpt lat="46.97867" lon="5.79633">
        <ele>290.94</ele>
        <time>2022-07-11T07:01:23Z</time>
      </trkpt>
      <trkpt lat="46.97872" lon="5.79627">
        <ele>290.94</ele>
        <time>2022-07-11T07:01:24Z</time>
      </trkpt>
      <trkpt lat="46.9792" lon="5.79581">
        <ele>291.9</ele>
        <time>2022-07-11T07:01:36Z</time>
      </trkpt>
      <trkpt lat="46.97978" lon="5.79556">
        <ele>292.86</ele>
        <time>2022-07-11T07:01:52Z</time>
      </trkpt>
      <trkpt lat="46.98025" lon="5.7955">
        <ele>295.74</ele>
        <time>2022-07-11T07:02:09Z</time>
      </trkpt>
      <trkpt lat="46.98054" lon="5.79541">
        <ele>298.15</ele>
        <time>2022-07-11T07:02:24Z</time>
      </trkpt>
      <trkpt lat="46.9808" lon="5.79521">
        <ele>299.59</ele>
        <time>2022-07-11T07:02:37Z</time>
      </trkpt>
      <trkpt lat="46.98106" lon="5.79487">
        <ele>301.51</ele>
        <time>2022-07-11T07:02:53Z</time>
      </trkpt>
      <trkpt lat="46.9813" lon="5.79454">
        <ele>302.47</ele>
        <time>2022-07-11T07:03:07Z</time>
      </trkpt>
      <trkpt lat="46.98132" lon="5.79454">
        <ele>302.95</ele>
        <time>2022-07-11T07:03:08Z</time>
      </trkpt>
      <trkpt lat="46.98134" lon="5.79454">
        <ele>301.99</ele>
        <time>2022-07-11T07:03:09Z</time>
      </trkpt>
      <trkpt lat="46.98136" lon="5.79455">
        <ele>302.95</ele>
        <time>2022-07-11T07:03:10Z</time>
      </trkpt>
      <trkpt lat="46.98138" lon="5.79456">
        <ele>302.95</ele>
        <time>2022-07-11T07:03:11Z</time>
      </trkpt>
      <trkpt lat="46.9814" lon="5.79458">
        <ele>302.47</ele>
        <time>2022-07-11T07:03:12Z</time>
      </trkpt>
      <trkpt lat="46.98142" lon="5.79459">
        <ele>302.47</ele>
        <time>2022-07-11T07:03:13Z</time>
      </trkpt>
      <trkpt lat="46.98153" lon="5.79464">
        <ele>302.95</ele>
        <time>2022-07-11T07:03:19Z</time>
      </trkpt>
      <trkpt lat="46.98155" lon="5.79464">
        <ele>302.95</ele>
        <time>2022-07-11T07:03:20Z</time>
      </trkpt>
      <trkpt lat="46.98157" lon="5.79464">
        <ele>302.95</ele>
        <time>2022-07-11T07:03:21Z</time>
      </trkpt>
      <trkpt lat="46.98197" lon="5.79488">
        <ele>303.43</ele>
        <time>2022-07-11T07:03:36Z</time>
      </trkpt>
      <trkpt lat="46.98265" lon="5.79504">
        <ele>302.47</ele>
        <time>2022-07-11T07:03:54Z</time>
      </trkpt>
      <trkpt lat="46.98327" lon="5.79513">
        <ele>301.51</ele>
        <time>2022-07-11T07:04:09Z</time>
      </trkpt>
      <trkpt lat="46.98412" lon="5.79524">
        <ele>300.55</ele>
        <time>2022-07-11T07:04:25Z</time>
      </trkpt>
      <trkpt lat="46.98537" lon="5.79538">
        <ele>298.15</ele>
        <time>2022-07-11T07:04:45Z</time>
      </trkpt>
      <trkpt lat="46.98648" lon="5.79528">
        <ele>295.26</ele>
        <time>2022-07-11T07:05:02Z</time>
      </trkpt>
      <trkpt lat="46.987" lon="5.79517">
        <ele>294.3</ele>
        <time>2022-07-11T07:05:10Z</time>
      </trkpt>
      <trkpt lat="46.98809" lon="5.79496">
        <ele>291.42</ele>
        <time>2022-07-11T07:05:26Z</time>
      </trkpt>
      <trkpt lat="46.98926" lon="5.79455">
        <ele>288.05</ele>
        <time>2022-07-11T07:05:42Z</time>
      </trkpt>
      <trkpt lat="46.98987" lon="5.79418">
        <ele>286.13</ele>
        <time>2022-07-11T07:05:51Z</time>
      </trkpt>
      <trkpt lat="46.99072" lon="5.79376">
        <ele>282.77</ele>
        <time>2022-07-11T07:06:04Z</time>
      </trkpt>
      <trkpt lat="46.99187" lon="5.79316">
        <ele>280.36</ele>
        <time>2022-07-11T07:06:21Z</time>
      </trkpt>
      <trkpt lat="46.99317" lon="5.7925">
        <ele>279.4</ele>
        <time>2022-07-11T07:06:42Z</time>
      </trkpt>
      <trkpt lat="46.99431" lon="5.79185">
        <ele>277.96</ele>
        <time>2022-07-11T07:07:01Z</time>
      </trkpt>
      <trkpt lat="46.99526" lon="5.7913">
        <ele>276.52</ele>
        <time>2022-07-11T07:07:17Z</time>
      </trkpt>
      <trkpt lat="46.99594" lon="5.79104">
        <ele>274.59</ele>
        <time>2022-07-11T07:07:28Z</time>
      </trkpt>
      <trkpt lat="46.99599" lon="5.791">
        <ele>274.59</ele>
        <time>2022-07-11T07:07:29Z</time>
      </trkpt>
      <trkpt lat="46.99611" lon="5.79092">
        <ele>274.11</ele>
        <time>2022-07-11T07:07:31Z</time>
      </trkpt>
      <trkpt lat="46.99617" lon="5.79086">
        <ele>273.63</ele>
        <time>2022-07-11T07:07:32Z</time>
      </trkpt>
      <trkpt lat="46.99623" lon="5.7908">
        <ele>273.63</ele>
        <time>2022-07-11T07:07:33Z</time>
      </trkpt>
      <trkpt lat="46.99639" lon="5.7906">
        <ele>272.67</ele>
        <time>2022-07-11T07:07:36Z</time>
      </trkpt>
      <trkpt lat="46.99646" lon="5.79058">
        <ele>273.15</ele>
        <time>2022-07-11T07:07:37Z</time>
      </trkpt>
      <trkpt lat="46.99653" lon="5.79054">
        <ele>272.67</ele>
        <time>2022-07-11T07:07:38Z</time>
      </trkpt>
      <trkpt lat="46.99672" lon="5.79041">
        <ele>272.19</ele>
        <time>2022-07-11T07:07:41Z</time>
      </trkpt>
      <trkpt lat="46.99678" lon="5.79038">
        <ele>272.19</ele>
        <time>2022-07-11T07:07:42Z</time>
      </trkpt>
      <trkpt lat="46.99685" lon="5.79037">
        <ele>272.67</ele>
        <time>2022-07-11T07:07:43Z</time>
      </trkpt>
      <trkpt lat="46.99771" lon="5.79016">
        <ele>270.27</ele>
        <time>2022-07-11T07:07:57Z</time>
      </trkpt>
      <trkpt lat="46.99882" lon="5.78949">
        <ele>266.9</ele>
        <time>2022-07-11T07:08:14Z</time>
      </trkpt>
      <trkpt lat="47.00008" lon="5.78883">
        <ele>263.54</ele>
        <time>2022-07-11T07:08:33Z</time>
      </trkpt>
      <trkpt lat="47.00114" lon="5.78876">
        <ele>262.58</ele>
        <time>2022-07-11T07:08:49Z</time>
      </trkpt>
      <trkpt lat="47.00224" lon="5.7888">
        <ele>259.69</ele>
        <time>2022-07-11T07:09:07Z</time>
      </trkpt>
      <trkpt lat="47.00342" lon="5.78881">
        <ele>257.77</ele>
        <time>2022-07-11T07:09:25Z</time>
      </trkpt>
      <trkpt lat="47.00462" lon="5.78849">
        <ele>255.37</ele>
        <time>2022-07-11T07:09:44Z</time>
      </trkpt>
      <trkpt lat="47.00552" lon="5.78802">
        <ele>253.93</ele>
        <time>2022-07-11T07:09:58Z</time>
      </trkpt>
      <trkpt lat="47.00557" lon="5.78796">
        <ele>253.93</ele>
        <time>2022-07-11T07:09:59Z</time>
      </trkpt>
      <trkpt lat="47.00624" lon="5.78713">
        <ele>252</ele>
        <time>2022-07-11T07:10:13Z</time>
      </trkpt>
      <trkpt lat="47.00723" lon="5.78647">
        <ele>250.56</ele>
        <time>2022-07-11T07:10:31Z</time>
      </trkpt>
      <trkpt lat="47.00825" lon="5.78572">
        <ele>248.64</ele>
        <time>2022-07-11T07:10:51Z</time>
      </trkpt>
      <trkpt lat="47.00918" lon="5.7847">
        <ele>246.72</ele>
        <time>2022-07-11T07:11:11Z</time>
      </trkpt>
      <trkpt lat="47.01008" lon="5.78362">
        <ele>246.72</ele>
        <time>2022-07-11T07:11:34Z</time>
      </trkpt>
      <trkpt lat="47.01019" lon="5.78347">
        <ele>246.23</ele>
        <time>2022-07-11T07:11:37Z</time>
      </trkpt>
      <trkpt lat="47.01022" lon="5.78342">
        <ele>246.23</ele>
        <time>2022-07-11T07:11:38Z</time>
      </trkpt>
      <trkpt lat="47.01026" lon="5.78338">
        <ele>246.23</ele>
        <time>2022-07-11T07:11:39Z</time>
      </trkpt>
      <trkpt lat="47.01085" lon="5.78268">
        <ele>246.23</ele>
        <time>2022-07-11T07:11:55Z</time>
      </trkpt>
      <trkpt lat="47.01147" lon="5.78194">
        <ele>246.23</ele>
        <time>2022-07-11T07:12:12Z</time>
      </trkpt>
      <trkpt lat="47.01154" lon="5.78186">
        <ele>246.23</ele>
        <time>2022-07-11T07:12:14Z</time>
      </trkpt>
      <trkpt lat="47.01158" lon="5.78182">
        <ele>246.72</ele>
        <time>2022-07-11T07:12:15Z</time>
      </trkpt>
      <trkpt lat="47.01179" lon="5.78155">
        <ele>245.75</ele>
        <time>2022-07-11T07:12:21Z</time>
      </trkpt>
      <trkpt lat="47.01198" lon="5.78136">
        <ele>245.75</ele>
        <time>2022-07-11T07:12:26Z</time>
      </trkpt>
      <trkpt lat="47.01208" lon="5.78123">
        <ele>246.23</ele>
        <time>2022-07-11T07:12:29Z</time>
      </trkpt>
      <trkpt lat="47.01251" lon="5.78077">
        <ele>246.23</ele>
        <time>2022-07-11T07:12:43Z</time>
      </trkpt>
      <trkpt lat="47.01311" lon="5.7801">
        <ele>246.23</ele>
        <time>2022-07-11T07:13:02Z</time>
      </trkpt>
      <trkpt lat="47.01344" lon="5.77978">
        <ele>246.23</ele>
        <time>2022-07-11T07:13:13Z</time>
      </trkpt>
      <trkpt lat="47.01372" lon="5.77999">
        <ele>246.23</ele>
        <time>2022-07-11T07:13:22Z</time>
      </trkpt>
      <trkpt lat="47.01418" lon="5.7807">
        <ele>246.23</ele>
        <time>2022-07-11T07:13:39Z</time>
      </trkpt>
      <trkpt lat="47.0146" lon="5.78138">
        <ele>247.2</ele>
        <time>2022-07-11T07:13:55Z</time>
      </trkpt>
      <trkpt lat="47.0151" lon="5.78214">
        <ele>246.72</ele>
        <time>2022-07-11T07:14:14Z</time>
      </trkpt>
      <trkpt lat="47.01551" lon="5.78274">
        <ele>247.2</ele>
        <time>2022-07-11T07:14:29Z</time>
      </trkpt>
      <trkpt lat="47.016" lon="5.78337">
        <ele>247.2</ele>
        <time>2022-07-11T07:14:45Z</time>
      </trkpt>
      <trkpt lat="47.01655" lon="5.78412">
        <ele>247.68</ele>
        <time>2022-07-11T07:15:04Z</time>
      </trkpt>
      <trkpt lat="47.01717" lon="5.78494">
        <ele>247.68</ele>
        <time>2022-07-11T07:15:25Z</time>
      </trkpt>
      <trkpt lat="47.01763" lon="5.78545">
        <ele>247.2</ele>
        <time>2022-07-11T07:15:39Z</time>
      </trkpt>
      <trkpt lat="47.01787" lon="5.7859">
        <ele>247.68</ele>
        <time>2022-07-11T07:15:48Z</time>
      </trkpt>
      <trkpt lat="47.01798" lon="5.78618">
        <ele>247.2</ele>
        <time>2022-07-11T07:15:53Z</time>
      </trkpt>
      <trkpt lat="47.01807" lon="5.78631">
        <ele>247.68</ele>
        <time>2022-07-11T07:15:56Z</time>
      </trkpt>
      <trkpt lat="47.0181" lon="5.78635">
        <ele>247.2</ele>
        <time>2022-07-11T07:15:57Z</time>
      </trkpt>
      <trkpt lat="47.01864" lon="5.78683">
        <ele>246.23</ele>
        <time>2022-07-11T07:16:13Z</time>
      </trkpt>
      <trkpt lat="47.01909" lon="5.78716">
        <ele>245.75</ele>
        <time>2022-07-11T07:16:25Z</time>
      </trkpt>
      <trkpt lat="47.01913" lon="5.78717">
        <ele>246.72</ele>
        <time>2022-07-11T07:16:26Z</time>
      </trkpt>
      <trkpt lat="47.01917" lon="5.78717">
        <ele>246.72</ele>
        <time>2022-07-11T07:16:27Z</time>
      </trkpt>
      <trkpt lat="47.01921" lon="5.78717">
        <ele>245.75</ele>
        <time>2022-07-11T07:16:28Z</time>
      </trkpt>
      <trkpt lat="47.01926" lon="5.78717">
        <ele>245.27</ele>
        <time>2022-07-11T07:16:29Z</time>
      </trkpt>
      <trkpt lat="47.01938" lon="5.78714">
        <ele>246.23</ele>
        <time>2022-07-11T07:16:32Z</time>
      </trkpt>
      <trkpt lat="47.01942" lon="5.78712">
        <ele>246.23</ele>
        <time>2022-07-11T07:16:33Z</time>
      </trkpt>
      <trkpt lat="47.02006" lon="5.7867">
        <ele>246.72</ele>
        <time>2022-07-11T07:16:51Z</time>
      </trkpt>
      <trkpt lat="47.02041" lon="5.78642">
        <ele>249.12</ele>
        <time>2022-07-11T07:17:04Z</time>
      </trkpt>
      <trkpt lat="47.0208" lon="5.78614">
        <ele>248.16</ele>
        <time>2022-07-11T07:17:17Z</time>
      </trkpt>
      <trkpt lat="47.02105" lon="5.786">
        <ele>246.72</ele>
        <time>2022-07-11T07:17:23Z</time>
      </trkpt>
      <trkpt lat="47.02115" lon="5.78596">
        <ele>246.23</ele>
        <time>2022-07-11T07:17:25Z</time>
      </trkpt>
      <trkpt lat="47.0212" lon="5.78593">
        <ele>246.23</ele>
        <time>2022-07-11T07:17:26Z</time>
      </trkpt>
      <trkpt lat="47.02154" lon="5.78575">
        <ele>245.27</ele>
        <time>2022-07-11T07:17:33Z</time>
      </trkpt>
      <trkpt lat="47.02158" lon="5.78571">
        <ele>244.79</ele>
        <time>2022-07-11T07:17:34Z</time>
      </trkpt>
      <trkpt lat="47.02166" lon="5.78563">
        <ele>245.27</ele>
        <time>2022-07-11T07:17:36Z</time>
      </trkpt>
      <trkpt lat="47.0217" lon="5.7856">
        <ele>245.27</ele>
        <time>2022-07-11T07:17:37Z</time>
      </trkpt>
      <trkpt lat="47.02243" lon="5.78511">
        <ele>244.31</ele>
        <time>2022-07-11T07:17:56Z</time>
      </trkpt>
      <trkpt lat="47.02333" lon="5.7845">
        <ele>246.23</ele>
        <time>2022-07-11T07:18:20Z</time>
      </trkpt>
      <trkpt lat="47.02405" lon="5.78399">
        <ele>246.23</ele>
        <time>2022-07-11T07:18:39Z</time>
      </trkpt>
      <trkpt lat="47.02475" lon="5.78352">
        <ele>246.23</ele>
        <time>2022-07-11T07:18:57Z</time>
      </trkpt>
      <trkpt lat="47.02558" lon="5.78295">
        <ele>245.75</ele>
        <time>2022-07-11T07:19:18Z</time>
      </trkpt>
      <trkpt lat="47.02634" lon="5.78243">
        <ele>245.27</ele>
        <time>2022-07-11T07:19:38Z</time>
      </trkpt>
      <trkpt lat="47.02715" lon="5.78187">
        <ele>245.75</ele>
        <time>2022-07-11T07:20:01Z</time>
      </trkpt>
      <trkpt lat="47.02746" lon="5.78155">
        <ele>245.75</ele>
        <time>2022-07-11T07:20:12Z</time>
      </trkpt>
      <trkpt lat="47.02815" lon="5.78108">
        <ele>246.23</ele>
        <time>2022-07-11T07:20:31Z</time>
      </trkpt>
      <trkpt lat="47.02884" lon="5.7806">
        <ele>246.23</ele>
        <time>2022-07-11T07:20:49Z</time>
      </trkpt>
      <trkpt lat="47.02966" lon="5.78006">
        <ele>246.72</ele>
        <time>2022-07-11T07:21:11Z</time>
      </trkpt>
      <trkpt lat="47.02981" lon="5.77995">
        <ele>246.72</ele>
        <time>2022-07-11T07:21:15Z</time>
      </trkpt>
      <trkpt lat="47.02984" lon="5.77992">
        <ele>246.72</ele>
        <time>2022-07-11T07:21:16Z</time>
      </trkpt>
      <trkpt lat="47.0304" lon="5.77954">
        <ele>246.23</ele>
        <time>2022-07-11T07:21:32Z</time>
      </trkpt>
      <trkpt lat="47.03083" lon="5.77924">
        <ele>246.72</ele>
        <time>2022-07-11T07:21:45Z</time>
      </trkpt>
      <trkpt lat="47.03133" lon="5.7789">
        <ele>247.2</ele>
        <time>2022-07-11T07:22:01Z</time>
      </trkpt>
      <trkpt lat="47.03137" lon="5.77887">
        <ele>247.68</ele>
        <time>2022-07-11T07:22:16Z</time>
      </trkpt>
      <trkpt lat="47.03135" lon="5.77884">
        <ele>247.2</ele>
        <time>2022-07-11T07:22:38Z</time>
      </trkpt>
      <trkpt lat="47.0312" lon="5.77879">
        <ele>247.2</ele>
        <time>2022-07-11T07:23:07Z</time>
      </trkpt>
      <trkpt lat="47.03123" lon="5.77879">
        <ele>247.2</ele>
        <time>2022-07-11T07:23:39Z</time>
      </trkpt>
      <trkpt lat="47.03128" lon="5.77882">
        <ele>247.2</ele>
        <time>2022-07-11T07:24:06Z</time>
      </trkpt>
      <trkpt lat="47.0313" lon="5.77881">
        <ele>247.68</ele>
        <time>2022-07-11T07:24:30Z</time>
      </trkpt>
      <trkpt lat="47.03127" lon="5.77882">
        <ele>247.2</ele>
        <time>2022-07-11T07:24:56Z</time>
      </trkpt>
      <trkpt lat="47.03126" lon="5.77879">
        <ele>247.68</ele>
        <time>2022-07-11T07:25:24Z</time>
      </trkpt>
      <trkpt lat="47.03133" lon="5.77872">
        <ele>247.68</ele>
        <time>2022-07-11T07:25:40Z</time>
      </trkpt>
      <trkpt lat="47.0314" lon="5.77868">
        <ele>248.16</ele>
        <time>2022-07-11T07:25:46Z</time>
      </trkpt>
      <trkpt lat="47.03142" lon="5.77866">
        <ele>248.64</ele>
        <time>2022-07-11T07:25:47Z</time>
      </trkpt>
      <trkpt lat="47.03144" lon="5.77865">
        <ele>248.16</ele>
        <time>2022-07-11T07:25:48Z</time>
      </trkpt>
      <trkpt lat="47.03146" lon="5.77864">
        <ele>248.16</ele>
        <time>2022-07-11T07:25:49Z</time>
      </trkpt>
      <trkpt lat="47.03149" lon="5.77862">
        <ele>248.16</ele>
        <time>2022-07-11T07:25:50Z</time>
      </trkpt>
      <trkpt lat="47.03151" lon="5.77861">
        <ele>247.68</ele>
        <time>2022-07-11T07:25:51Z</time>
      </trkpt>
      <trkpt lat="47.03153" lon="5.7786">
        <ele>247.68</ele>
        <time>2022-07-11T07:25:52Z</time>
      </trkpt>
      <trkpt lat="47.03155" lon="5.77859">
        <ele>248.16</ele>
        <time>2022-07-11T07:25:53Z</time>
      </trkpt>
      <trkpt lat="47.03161" lon="5.77858">
        <ele>248.16</ele>
        <time>2022-07-11T07:25:57Z</time>
      </trkpt>
      <trkpt lat="47.03163" lon="5.77857">
        <ele>248.64</ele>
        <time>2022-07-11T07:25:58Z</time>
      </trkpt>
      <trkpt lat="47.03165" lon="5.77858">
        <ele>248.64</ele>
        <time>2022-07-11T07:25:59Z</time>
      </trkpt>
      <trkpt lat="47.03168" lon="5.7786">
        <ele>248.64</ele>
        <time>2022-07-11T07:26:00Z</time>
      </trkpt>
      <trkpt lat="47.03172" lon="5.77863">
        <ele>248.64</ele>
        <time>2022-07-11T07:26:01Z</time>
      </trkpt>
      <trkpt lat="47.03173" lon="5.77862">
        <ele>249.12</ele>
        <time>2022-07-11T07:26:02Z</time>
      </trkpt>
      <trkpt lat="47.03176" lon="5.77861">
        <ele>248.64</ele>
        <time>2022-07-11T07:26:03Z</time>
      </trkpt>
      <trkpt lat="47.03178" lon="5.77859">
        <ele>248.16</ele>
        <time>2022-07-11T07:26:04Z</time>
      </trkpt>
      <trkpt lat="47.03181" lon="5.77858">
        <ele>248.16</ele>
        <time>2022-07-11T07:26:16Z</time>
      </trkpt>
      <trkpt lat="47.0319" lon="5.77848">
        <ele>248.16</ele>
        <time>2022-07-11T07:26:38Z</time>
      </trkpt>
      <trkpt lat="47.03205" lon="5.77838">
        <ele>248.64</ele>
        <time>2022-07-11T07:26:46Z</time>
      </trkpt>
      <trkpt lat="47.03206" lon="5.77836">
        <ele>248.64</ele>
        <time>2022-07-11T07:26:47Z</time>
      </trkpt>
      <trkpt lat="47.03208" lon="5.77834">
        <ele>248.64</ele>
        <time>2022-07-11T07:26:48Z</time>
      </trkpt>
      <trkpt lat="47.0321" lon="5.77834">
        <ele>248.64</ele>
        <time>2022-07-11T07:27:03Z</time>
      </trkpt>
      <trkpt lat="47.03211" lon="5.77833">
        <ele>248.16</ele>
        <time>2022-07-11T07:27:18Z</time>
      </trkpt>
      <trkpt lat="47.0321" lon="5.77833">
        <ele>248.16</ele>
        <time>2022-07-11T07:27:36Z</time>
      </trkpt>
      <trkpt lat="47.0321" lon="5.77834">
        <ele>246.72</ele>
        <time>2022-07-11T07:27:41Z</time>
      </trkpt>
      <trkpt lat="47.0321" lon="5.77833">
        <ele>239.51</ele>
        <time>2022-07-11T10:19:28Z</time>
      </trkpt>
      <trkpt lat="47.03109" lon="5.77946">
        <ele>240.47</ele>
        <time>2022-07-11T10:19:49Z</time>
      </trkpt>
      <trkpt lat="47.03119" lon="5.7794">
        <ele>239.99</ele>
        <time>2022-07-11T10:20:04Z</time>
      </trkpt>
      <trkpt lat="47.03121" lon="5.77941">
        <ele>236.14</ele>
        <time>2022-07-11T10:20:11Z</time>
      </trkpt>
      <trkpt lat="47.03121" lon="5.77942">
        <ele>233.26</ele>
        <time>2022-07-11T10:20:14Z</time>
      </trkpt>
      <trkpt lat="47.03125" lon="5.77943">
        <ele>228.93</ele>
        <time>2022-07-11T10:20:18Z</time>
      </trkpt>
      <trkpt lat="47.03126" lon="5.77943">
        <ele>228.93</ele>
        <time>2022-07-11T10:20:19Z</time>
      </trkpt>
      <trkpt lat="47.03131" lon="5.77942">
        <ele>227.49</ele>
        <time>2022-07-11T10:20:22Z</time>
      </trkpt>
      <trkpt lat="47.03136" lon="5.7794">
        <ele>225.09</ele>
        <time>2022-07-11T10:20:27Z</time>
      </trkpt>
      <trkpt lat="47.03141" lon="5.77938">
        <ele>223.64</ele>
        <time>2022-07-11T10:20:32Z</time>
      </trkpt>
      <trkpt lat="47.03191" lon="5.77972">
        <ele>223.64</ele>
        <time>2022-07-11T10:20:44Z</time>
      </trkpt>
      <trkpt lat="47.03233" lon="5.78035">
        <ele>224.61</ele>
        <time>2022-07-11T10:21:00Z</time>
      </trkpt>
      <trkpt lat="47.03269" lon="5.78128">
        <ele>224.12</ele>
        <time>2022-07-11T10:21:18Z</time>
      </trkpt>
      <trkpt lat="47.03302" lon="5.78223">
        <ele>223.16</ele>
        <time>2022-07-11T10:21:35Z</time>
      </trkpt>
      <trkpt lat="47.03333" lon="5.78314">
        <ele>223.64</ele>
        <time>2022-07-11T10:21:50Z</time>
      </trkpt>
      <trkpt lat="47.03343" lon="5.78354">
        <ele>224.12</ele>
        <time>2022-07-11T10:21:56Z</time>
      </trkpt>
      <trkpt lat="47.03344" lon="5.78361">
        <ele>224.61</ele>
        <time>2022-07-11T10:21:57Z</time>
      </trkpt>
      <trkpt lat="47.03366" lon="5.78456">
        <ele>224.61</ele>
        <time>2022-07-11T10:22:14Z</time>
      </trkpt>
      <trkpt lat="47.03393" lon="5.78501">
        <ele>226.05</ele>
        <time>2022-07-11T10:22:26Z</time>
      </trkpt>
      <trkpt lat="47.0344" lon="5.78559">
        <ele>225.57</ele>
        <time>2022-07-11T10:22:42Z</time>
      </trkpt>
      <trkpt lat="47.03495" lon="5.78625">
        <ele>227.97</ele>
        <time>2022-07-11T10:23:01Z</time>
      </trkpt>
      <trkpt lat="47.03502" lon="5.78634">
        <ele>229.41</ele>
        <time>2022-07-11T10:23:04Z</time>
      </trkpt>
      <trkpt lat="47.03504" lon="5.78637">
        <ele>228.45</ele>
        <time>2022-07-11T10:23:05Z</time>
      </trkpt>
      <trkpt lat="47.03506" lon="5.7864">
        <ele>228.45</ele>
        <time>2022-07-11T10:23:06Z</time>
      </trkpt>
      <trkpt lat="47.03509" lon="5.78643">
        <ele>228.93</ele>
        <time>2022-07-11T10:23:07Z</time>
      </trkpt>
      <trkpt lat="47.03511" lon="5.78646">
        <ele>228.93</ele>
        <time>2022-07-11T10:23:08Z</time>
      </trkpt>
      <trkpt lat="47.03518" lon="5.78655">
        <ele>230.37</ele>
        <time>2022-07-11T10:23:11Z</time>
      </trkpt>
      <trkpt lat="47.03544" lon="5.78702">
        <ele>232.3</ele>
        <time>2022-07-11T10:23:26Z</time>
      </trkpt>
      <trkpt lat="47.03579" lon="5.7876">
        <ele>235.18</ele>
        <time>2022-07-11T10:23:45Z</time>
      </trkpt>
      <trkpt lat="47.03604" lon="5.78796">
        <ele>237.1</ele>
        <time>2022-07-11T10:24:00Z</time>
      </trkpt>
      <trkpt lat="47.03634" lon="5.78825">
        <ele>239.99</ele>
        <time>2022-07-11T10:24:17Z</time>
      </trkpt>
      <trkpt lat="47.03638" lon="5.78826">
        <ele>240.47</ele>
        <time>2022-07-11T10:24:19Z</time>
      </trkpt>
      <trkpt lat="47.0364" lon="5.78826">
        <ele>240.47</ele>
        <time>2022-07-11T10:24:20Z</time>
      </trkpt>
      <trkpt lat="47.03641" lon="5.78825">
        <ele>240.47</ele>
        <time>2022-07-11T10:24:21Z</time>
      </trkpt>
      <trkpt lat="47.0365" lon="5.78823">
        <ele>239.99</ele>
        <time>2022-07-11T10:24:34Z</time>
      </trkpt>
      <trkpt lat="47.03648" lon="5.78826">
        <ele>240.95</ele>
        <time>2022-07-11T10:24:52Z</time>
      </trkpt>
      <trkpt lat="47.03647" lon="5.78828">
        <ele>240.47</ele>
        <time>2022-07-11T10:25:14Z</time>
      </trkpt>
      <trkpt lat="47.03646" lon="5.78826">
        <ele>241.43</ele>
        <time>2022-07-11T10:25:36Z</time>
      </trkpt>
      <trkpt lat="47.0365" lon="5.78823">
        <ele>241.91</ele>
        <time>2022-07-11T10:25:59Z</time>
      </trkpt>
      <trkpt lat="47.0365" lon="5.78823">
        <ele>241.91</ele>
        <time>2022-07-11T10:26:27Z</time>
      </trkpt>
      <trkpt lat="47.0365" lon="5.78824">
        <ele>241.91</ele>
        <time>2022-07-11T10:26:44Z</time>
      </trkpt>
      <trkpt lat="47.03648" lon="5.78822">
        <ele>241.91</ele>
        <time>2022-07-11T10:27:07Z</time>
      </trkpt>
      <trkpt lat="47.03651" lon="5.78826">
        <ele>242.39</ele>
        <time>2022-07-11T10:27:37Z</time>
      </trkpt>
      <trkpt lat="47.03649" lon="5.78825">
        <ele>242.87</ele>
        <time>2022-07-11T10:27:44Z</time>
      </trkpt>
      <trkpt lat="47.03648" lon="5.78825">
        <ele>242.39</ele>
        <time>2022-07-11T10:27:45Z</time>
      </trkpt>
      <trkpt lat="47.03646" lon="5.78825">
        <ele>242.39</ele>
        <time>2022-07-11T10:27:46Z</time>
      </trkpt>
      <trkpt lat="47.03644" lon="5.78825">
        <ele>242.39</ele>
        <time>2022-07-11T10:27:47Z</time>
      </trkpt>
      <trkpt lat="47.03642" lon="5.78825">
        <ele>241.91</ele>
        <time>2022-07-11T10:27:48Z</time>
      </trkpt>
      <trkpt lat="47.03639" lon="5.78824">
        <ele>241.91</ele>
        <time>2022-07-11T10:27:49Z</time>
      </trkpt>
      <trkpt lat="47.03636" lon="5.78822">
        <ele>241.91</ele>
        <time>2022-07-11T10:27:50Z</time>
      </trkpt>
      <trkpt lat="47.03603" lon="5.7879">
        <ele>240.47</ele>
        <time>2022-07-11T10:27:58Z</time>
      </trkpt>
      <trkpt lat="47.03599" lon="5.78784">
        <ele>239.99</ele>
        <time>2022-07-11T10:27:59Z</time>
      </trkpt>
      <trkpt lat="47.03547" lon="5.78697">
        <ele>236.62</ele>
        <time>2022-07-11T10:28:10Z</time>
      </trkpt>
      <trkpt lat="47.03495" lon="5.78615">
        <ele>232.78</ele>
        <time>2022-07-11T10:28:19Z</time>
      </trkpt>
      <trkpt lat="47.03418" lon="5.78524">
        <ele>231.33</ele>
        <time>2022-07-11T10:28:32Z</time>
      </trkpt>
      <trkpt lat="47.034" lon="5.785">
        <ele>230.85</ele>
        <time>2022-07-11T10:28:37Z</time>
      </trkpt>
      <trkpt lat="47.03396" lon="5.78496">
        <ele>230.37</ele>
        <time>2022-07-11T10:28:38Z</time>
      </trkpt>
      <trkpt lat="47.0339" lon="5.78488">
        <ele>230.37</ele>
        <time>2022-07-11T10:28:40Z</time>
      </trkpt>
      <trkpt lat="47.03388" lon="5.78483">
        <ele>229.89</ele>
        <time>2022-07-11T10:28:41Z</time>
      </trkpt>
      <trkpt lat="47.03385" lon="5.78471">
        <ele>230.37</ele>
        <time>2022-07-11T10:28:51Z</time>
      </trkpt>
      <trkpt lat="47.03389" lon="5.7847">
        <ele>230.85</ele>
        <time>2022-07-11T10:29:16Z</time>
      </trkpt>
      <trkpt lat="47.03389" lon="5.78467">
        <ele>230.85</ele>
        <time>2022-07-11T10:29:18Z</time>
      </trkpt>
      <trkpt lat="47.03389" lon="5.78466">
        <ele>230.85</ele>
        <time>2022-07-11T10:29:19Z</time>
      </trkpt>
      <trkpt lat="47.03389" lon="5.78463">
        <ele>230.85</ele>
        <time>2022-07-11T10:29:20Z</time>
      </trkpt>
      <trkpt lat="47.03388" lon="5.7846">
        <ele>230.85</ele>
        <time>2022-07-11T10:29:21Z</time>
      </trkpt>
      <trkpt lat="47.03387" lon="5.78457">
        <ele>230.85</ele>
        <time>2022-07-11T10:29:22Z</time>
      </trkpt>
      <trkpt lat="47.03385" lon="5.78454">
        <ele>231.33</ele>
        <time>2022-07-11T10:29:23Z</time>
      </trkpt>
      <trkpt lat="47.03382" lon="5.78452">
        <ele>231.33</ele>
        <time>2022-07-11T10:29:24Z</time>
      </trkpt>
      <trkpt lat="47.0338" lon="5.78449">
        <ele>231.33</ele>
        <time>2022-07-11T10:29:25Z</time>
      </trkpt>
      <trkpt lat="47.03377" lon="5.78446">
        <ele>230.85</ele>
        <time>2022-07-11T10:29:26Z</time>
      </trkpt>
      <trkpt lat="47.0337" lon="5.78433">
        <ele>228.93</ele>
        <time>2022-07-11T10:29:30Z</time>
      </trkpt>
      <trkpt lat="47.03279" lon="5.7816">
        <ele>224.12</ele>
        <time>2022-07-11T11:37:43Z</time>
      </trkpt>
      <trkpt lat="47.03308" lon="5.78232">
        <ele>227.49</ele>
        <time>2022-07-11T11:37:58Z</time>
      </trkpt>
      <trkpt lat="47.03318" lon="5.78262">
        <ele>229.41</ele>
        <time>2022-07-11T11:38:04Z</time>
      </trkpt>
      <trkpt lat="47.03325" lon="5.78289">
        <ele>232.78</ele>
        <time>2022-07-11T11:38:09Z</time>
      </trkpt>
      <trkpt lat="47.03327" lon="5.78294">
        <ele>231.33</ele>
        <time>2022-07-11T11:38:10Z</time>
      </trkpt>
      <trkpt lat="47.03344" lon="5.7837">
        <ele>235.66</ele>
        <time>2022-07-11T11:38:24Z</time>
      </trkpt>
      <trkpt lat="47.03359" lon="5.78436">
        <ele>239.02</ele>
        <time>2022-07-11T11:38:37Z</time>
      </trkpt>
      <trkpt lat="47.0336" lon="5.78454">
        <ele>238.54</ele>
        <time>2022-07-11T11:38:41Z</time>
      </trkpt>
      <trkpt lat="47.03359" lon="5.78457">
        <ele>239.02</ele>
        <time>2022-07-11T11:38:42Z</time>
      </trkpt>
      <trkpt lat="47.03357" lon="5.7846">
        <ele>239.51</ele>
        <time>2022-07-11T11:38:43Z</time>
      </trkpt>
      <trkpt lat="47.03354" lon="5.78462">
        <ele>239.51</ele>
        <time>2022-07-11T11:38:44Z</time>
      </trkpt>
      <trkpt lat="47.03351" lon="5.78463">
        <ele>239.51</ele>
        <time>2022-07-11T11:38:45Z</time>
      </trkpt>
      <trkpt lat="47.03328" lon="5.78474">
        <ele>240.95</ele>
        <time>2022-07-11T11:38:51Z</time>
      </trkpt>
      <trkpt lat="47.03243" lon="5.78496">
        <ele>243.83</ele>
        <time>2022-07-11T11:39:11Z</time>
      </trkpt>
      <trkpt lat="47.03173" lon="5.7852">
        <ele>245.27</ele>
        <time>2022-07-11T11:39:28Z</time>
      </trkpt>
      <trkpt lat="47.03165" lon="5.78526">
        <ele>246.23</ele>
        <time>2022-07-11T11:39:30Z</time>
      </trkpt>
      <trkpt lat="47.03161" lon="5.7853">
        <ele>246.72</ele>
        <time>2022-07-11T11:39:31Z</time>
      </trkpt>
      <trkpt lat="47.03158" lon="5.78534">
        <ele>246.72</ele>
        <time>2022-07-11T11:39:32Z</time>
      </trkpt>
      <trkpt lat="47.03155" lon="5.78539">
        <ele>246.72</ele>
        <time>2022-07-11T11:39:33Z</time>
      </trkpt>
      <trkpt lat="47.03153" lon="5.78544">
        <ele>247.2</ele>
        <time>2022-07-11T11:39:34Z</time>
      </trkpt>
      <trkpt lat="47.03121" lon="5.78631">
        <ele>247.2</ele>
        <time>2022-07-11T11:39:50Z</time>
      </trkpt>
      <trkpt lat="47.03106" lon="5.78678">
        <ele>247.68</ele>
        <time>2022-07-11T11:39:58Z</time>
      </trkpt>
      <trkpt lat="47.03078" lon="5.78785">
        <ele>247.2</ele>
        <time>2022-07-11T11:40:15Z</time>
      </trkpt>
      <trkpt lat="47.03042" lon="5.78905">
        <ele>249.12</ele>
        <time>2022-07-11T11:40:35Z</time>
      </trkpt>
      <trkpt lat="47.03037" lon="5.78922">
        <ele>248.64</ele>
        <time>2022-07-11T11:40:38Z</time>
      </trkpt>
      <trkpt lat="47.03036" lon="5.78928">
        <ele>250.08</ele>
        <time>2022-07-11T11:40:39Z</time>
      </trkpt>
      <trkpt lat="47.03035" lon="5.78933">
        <ele>248.64</ele>
        <time>2022-07-11T11:40:40Z</time>
      </trkpt>
      <trkpt lat="47.03005" lon="5.79049">
        <ele>248.16</ele>
        <time>2022-07-11T11:41:00Z</time>
      </trkpt>
      <trkpt lat="47.02975" lon="5.79153">
        <ele>247.2</ele>
        <time>2022-07-11T11:41:19Z</time>
      </trkpt>
      <trkpt lat="47.02958" lon="5.79212">
        <ele>249.12</ele>
        <time>2022-07-11T11:41:30Z</time>
      </trkpt>
      <trkpt lat="47.0293" lon="5.79311">
        <ele>248.64</ele>
        <time>2022-07-11T11:41:50Z</time>
      </trkpt>
      <trkpt lat="47.0292" lon="5.79363">
        <ele>248.16</ele>
        <time>2022-07-11T11:42:00Z</time>
      </trkpt>
      <trkpt lat="47.02922" lon="5.79367">
        <ele>247.68</ele>
        <time>2022-07-11T11:42:01Z</time>
      </trkpt>
      <trkpt lat="47.02925" lon="5.7937">
        <ele>247.68</ele>
        <time>2022-07-11T11:42:02Z</time>
      </trkpt>
      <trkpt lat="47.02927" lon="5.79372">
        <ele>247.68</ele>
        <time>2022-07-11T11:42:03Z</time>
      </trkpt>
      <trkpt lat="47.0293" lon="5.79374">
        <ele>247.68</ele>
        <time>2022-07-11T11:42:04Z</time>
      </trkpt>
      <trkpt lat="47.02933" lon="5.79375">
        <ele>248.16</ele>
        <time>2022-07-11T11:42:05Z</time>
      </trkpt>
      <trkpt lat="47.02936" lon="5.79376">
        <ele>247.68</ele>
        <time>2022-07-11T11:42:06Z</time>
      </trkpt>
      <trkpt lat="47.02939" lon="5.79377">
        <ele>247.2</ele>
        <time>2022-07-11T11:42:07Z</time>
      </trkpt>
      <trkpt lat="47.02942" lon="5.79379">
        <ele>247.2</ele>
        <time>2022-07-11T11:42:08Z</time>
      </trkpt>
      <trkpt lat="47.02992" lon="5.79406">
        <ele>248.16</ele>
        <time>2022-07-11T11:42:23Z</time>
      </trkpt>
      <trkpt lat="47.03031" lon="5.79431">
        <ele>248.16</ele>
        <time>2022-07-11T11:42:37Z</time>
      </trkpt>
      <trkpt lat="47.03034" lon="5.79431">
        <ele>247.68</ele>
        <time>2022-07-11T11:42:48Z</time>
      </trkpt>
      <trkpt lat="47.03037" lon="5.79433">
        <ele>247.68</ele>
        <time>2022-07-11T11:43:06Z</time>
      </trkpt>
      <trkpt lat="47.03041" lon="5.79436">
        <ele>247.68</ele>
        <time>2022-07-11T11:43:31Z</time>
      </trkpt>
      <trkpt lat="47.03077" lon="5.79456">
        <ele>247.2</ele>
        <time>2022-07-11T11:43:46Z</time>
      </trkpt>
      <trkpt lat="47.03132" lon="5.79487">
        <ele>248.64</ele>
        <time>2022-07-11T11:44:03Z</time>
      </trkpt>
      <trkpt lat="47.03183" lon="5.79521">
        <ele>248.16</ele>
        <time>2022-07-11T11:44:19Z</time>
      </trkpt>
      <trkpt lat="47.03231" lon="5.79549">
        <ele>249.12</ele>
        <time>2022-07-11T11:44:35Z</time>
      </trkpt>
      <trkpt lat="47.03291" lon="5.7959">
        <ele>248.16</ele>
        <time>2022-07-11T11:44:52Z</time>
      </trkpt>
      <trkpt lat="47.03357" lon="5.79636">
        <ele>249.12</ele>
        <time>2022-07-11T11:45:11Z</time>
      </trkpt>
      <trkpt lat="47.03398" lon="5.79686">
        <ele>250.08</ele>
        <time>2022-07-11T11:45:28Z</time>
      </trkpt>
      <trkpt lat="47.0343" lon="5.79721">
        <ele>248.64</ele>
        <time>2022-07-11T11:45:40Z</time>
      </trkpt>
      <trkpt lat="47.03448" lon="5.7974">
        <ele>248.16</ele>
        <time>2022-07-11T11:45:49Z</time>
      </trkpt>
      <trkpt lat="47.0345" lon="5.79739">
        <ele>248.16</ele>
        <time>2022-07-11T11:45:51Z</time>
      </trkpt>
      <trkpt lat="47.03451" lon="5.79737">
        <ele>248.16</ele>
        <time>2022-07-11T11:45:52Z</time>
      </trkpt>
      <trkpt lat="47.03455" lon="5.7974">
        <ele>248.64</ele>
        <time>2022-07-11T11:45:53Z</time>
      </trkpt>
      <trkpt lat="47.03457" lon="5.79738">
        <ele>248.16</ele>
        <time>2022-07-11T11:45:54Z</time>
      </trkpt>
      <trkpt lat="47.03463" lon="5.7974">
        <ele>248.64</ele>
        <time>2022-07-11T11:45:55Z</time>
      </trkpt>
      <trkpt lat="47.03469" lon="5.79741">
        <ele>248.16</ele>
        <time>2022-07-11T11:45:56Z</time>
      </trkpt>
      <trkpt lat="47.03502" lon="5.79725">
        <ele>248.16</ele>
        <time>2022-07-11T11:46:07Z</time>
      </trkpt>
      <trkpt lat="47.03534" lon="5.79687">
        <ele>248.64</ele>
        <time>2022-07-11T11:46:20Z</time>
      </trkpt>
      <trkpt lat="47.03579" lon="5.79648">
        <ele>248.16</ele>
        <time>2022-07-11T11:46:35Z</time>
      </trkpt>
      <trkpt lat="47.0362" lon="5.79612">
        <ele>249.6</ele>
        <time>2022-07-11T11:46:49Z</time>
      </trkpt>
      <trkpt lat="47.0367" lon="5.79595">
        <ele>251.04</ele>
        <time>2022-07-11T11:47:03Z</time>
      </trkpt>
      <trkpt lat="47.0373" lon="5.79572">
        <ele>250.56</ele>
        <time>2022-07-11T11:47:21Z</time>
      </trkpt>
      <trkpt lat="47.03767" lon="5.79544">
        <ele>250.56</ele>
        <time>2022-07-11T11:47:35Z</time>
      </trkpt>
      <trkpt lat="47.03819" lon="5.79537">
        <ele>250.08</ele>
        <time>2022-07-11T11:47:51Z</time>
      </trkpt>
      <trkpt lat="47.03882" lon="5.79548">
        <ele>249.6</ele>
        <time>2022-07-11T11:48:07Z</time>
      </trkpt>
      <trkpt lat="47.03942" lon="5.79562">
        <ele>250.08</ele>
        <time>2022-07-11T11:48:22Z</time>
      </trkpt>
      <trkpt lat="47.04009" lon="5.79576">
        <ele>250.08</ele>
        <time>2022-07-11T11:48:39Z</time>
      </trkpt>
      <trkpt lat="47.04075" lon="5.79587">
        <ele>251.52</ele>
        <time>2022-07-11T11:48:57Z</time>
      </trkpt>
      <trkpt lat="47.04116" lon="5.79564">
        <ele>253.93</ele>
        <time>2022-07-11T11:49:12Z</time>
      </trkpt>
      <trkpt lat="47.04159" lon="5.79525">
        <ele>255.37</ele>
        <time>2022-07-11T11:49:29Z</time>
      </trkpt>
      <trkpt lat="47.0419" lon="5.79499">
        <ele>255.85</ele>
        <time>2022-07-11T11:49:44Z</time>
      </trkpt>
      <trkpt lat="47.0419" lon="5.79501">
        <ele>256.33</ele>
        <time>2022-07-11T11:49:45Z</time>
      </trkpt>
      <trkpt lat="47.04189" lon="5.79502">
        <ele>256.33</ele>
        <time>2022-07-11T11:49:46Z</time>
      </trkpt>
      <trkpt lat="47.04188" lon="5.79502">
        <ele>256.33</ele>
        <time>2022-07-11T11:49:47Z</time>
      </trkpt>
      <trkpt lat="47.04188" lon="5.79503">
        <ele>256.33</ele>
        <time>2022-07-11T11:49:48Z</time>
      </trkpt>
      <trkpt lat="47.04186" lon="5.79505">
        <ele>255.85</ele>
        <time>2022-07-11T11:49:49Z</time>
      </trkpt>
      <trkpt lat="47.04185" lon="5.79506">
        <ele>256.33</ele>
        <time>2022-07-11T11:49:50Z</time>
      </trkpt>
      <trkpt lat="47.04184" lon="5.79507">
        <ele>256.33</ele>
        <time>2022-07-11T11:49:51Z</time>
      </trkpt>
      <trkpt lat="47.04183" lon="5.79509">
        <ele>255.85</ele>
        <time>2022-07-11T11:49:52Z</time>
      </trkpt>
      <trkpt lat="47.04183" lon="5.7951">
        <ele>256.33</ele>
        <time>2022-07-11T11:49:53Z</time>
      </trkpt>
      <trkpt lat="47.04184" lon="5.79513">
        <ele>255.85</ele>
        <time>2022-07-11T11:50:04Z</time>
      </trkpt>
      <trkpt lat="47.04182" lon="5.79512">
        <ele>256.81</ele>
        <time>2022-07-11T11:50:40Z</time>
      </trkpt>
      <trkpt lat="47.04185" lon="5.79511">
        <ele>256.81</ele>
        <time>2022-07-11T11:50:56Z</time>
      </trkpt>
      <trkpt lat="47.04202" lon="5.79489">
        <ele>257.29</ele>
        <time>2022-07-11T11:51:08Z</time>
      </trkpt>
      <trkpt lat="47.0424" lon="5.79455">
        <ele>258.25</ele>
        <time>2022-07-11T11:51:25Z</time>
      </trkpt>
      <trkpt lat="47.04278" lon="5.79426">
        <ele>259.21</ele>
        <time>2022-07-11T11:51:43Z</time>
      </trkpt>
      <trkpt lat="47.04297" lon="5.79412">
        <ele>260.65</ele>
        <time>2022-07-11T11:51:51Z</time>
      </trkpt>
      <trkpt lat="47.04342" lon="5.79374">
        <ele>262.1</ele>
        <time>2022-07-11T11:52:09Z</time>
      </trkpt>
      <trkpt lat="47.04365" lon="5.79395">
        <ele>260.17</ele>
        <time>2022-07-11T11:52:18Z</time>
      </trkpt>
      <trkpt lat="47.04417" lon="5.79464">
        <ele>258.25</ele>
        <time>2022-07-11T11:52:35Z</time>
      </trkpt>
      <trkpt lat="47.04469" lon="5.79539">
        <ele>257.29</ele>
        <time>2022-07-11T11:52:51Z</time>
      </trkpt>
      <trkpt lat="47.0453" lon="5.79628">
        <ele>255.85</ele>
        <time>2022-07-11T11:53:10Z</time>
      </trkpt>
      <trkpt lat="47.04587" lon="5.79707">
        <ele>256.33</ele>
        <time>2022-07-11T11:53:29Z</time>
      </trkpt>
      <trkpt lat="47.04602" lon="5.79727">
        <ele>257.29</ele>
        <time>2022-07-11T11:53:34Z</time>
      </trkpt>
      <trkpt lat="47.04649" lon="5.7979">
        <ele>257.77</ele>
        <time>2022-07-11T11:53:52Z</time>
      </trkpt>
      <trkpt lat="47.04695" lon="5.79857">
        <ele>259.21</ele>
        <time>2022-07-11T11:54:10Z</time>
      </trkpt>
      <trkpt lat="47.04739" lon="5.79925">
        <ele>262.58</ele>
        <time>2022-07-11T11:54:29Z</time>
      </trkpt>
      <trkpt lat="47.04784" lon="5.79975">
        <ele>260.17</ele>
        <time>2022-07-11T11:54:45Z</time>
      </trkpt>
      <trkpt lat="47.04859" lon="5.80058">
        <ele>259.69</ele>
        <time>2022-07-11T11:55:05Z</time>
      </trkpt>
      <trkpt lat="47.04873" lon="5.80074">
        <ele>259.21</ele>
        <time>2022-07-11T11:55:09Z</time>
      </trkpt>
      <trkpt lat="47.04915" lon="5.80135">
        <ele>259.21</ele>
        <time>2022-07-11T11:55:24Z</time>
      </trkpt>
      <trkpt lat="47.04916" lon="5.80141">
        <ele>259.21</ele>
        <time>2022-07-11T11:55:25Z</time>
      </trkpt>
      <trkpt lat="47.04918" lon="5.80147">
        <ele>258.73</ele>
        <time>2022-07-11T11:55:26Z</time>
      </trkpt>
      <trkpt lat="47.04919" lon="5.80154">
        <ele>258.73</ele>
        <time>2022-07-11T11:55:27Z</time>
      </trkpt>
      <trkpt lat="47.04921" lon="5.80161">
        <ele>258.25</ele>
        <time>2022-07-11T11:55:28Z</time>
      </trkpt>
      <trkpt lat="47.04924" lon="5.80166">
        <ele>259.21</ele>
        <time>2022-07-11T11:55:29Z</time>
      </trkpt>
      <trkpt lat="47.04925" lon="5.80172">
        <ele>259.21</ele>
        <time>2022-07-11T11:55:30Z</time>
      </trkpt>
      <trkpt lat="47.04927" lon="5.80178">
        <ele>259.21</ele>
        <time>2022-07-11T11:55:31Z</time>
      </trkpt>
      <trkpt lat="47.04928" lon="5.80185">
        <ele>258.73</ele>
        <time>2022-07-11T11:55:32Z</time>
      </trkpt>
      <trkpt lat="47.04929" lon="5.80192">
        <ele>258.25</ele>
        <time>2022-07-11T11:55:33Z</time>
      </trkpt>
      <trkpt lat="47.04929" lon="5.80199">
        <ele>257.77</ele>
        <time>2022-07-11T11:55:34Z</time>
      </trkpt>
      <trkpt lat="47.04928" lon="5.80207">
        <ele>256.81</ele>
        <time>2022-07-11T11:55:35Z</time>
      </trkpt>
      <trkpt lat="47.04924" lon="5.80242">
        <ele>255.85</ele>
        <time>2022-07-11T11:55:39Z</time>
      </trkpt>
      <trkpt lat="47.04881" lon="5.80336">
        <ele>252.96</ele>
        <time>2022-07-11T11:55:51Z</time>
      </trkpt>
      <trkpt lat="47.04805" lon="5.80458">
        <ele>251.52</ele>
        <time>2022-07-11T11:56:08Z</time>
      </trkpt>
      <trkpt lat="47.04768" lon="5.80519">
        <ele>251.52</ele>
        <time>2022-07-11T11:56:20Z</time>
      </trkpt>
      <trkpt lat="47.04736" lon="5.80575">
        <ele>251.04</ele>
        <time>2022-07-11T11:56:36Z</time>
      </trkpt>
      <trkpt lat="47.04712" lon="5.80625">
        <ele>250.08</ele>
        <time>2022-07-11T11:56:48Z</time>
      </trkpt>
      <trkpt lat="47.0471" lon="5.80626">
        <ele>250.56</ele>
        <time>2022-07-11T11:56:49Z</time>
      </trkpt>
      <trkpt lat="47.04708" lon="5.80626">
        <ele>251.52</ele>
        <time>2022-07-11T11:56:50Z</time>
      </trkpt>
      <trkpt lat="47.04705" lon="5.80626">
        <ele>250.56</ele>
        <time>2022-07-11T11:56:51Z</time>
      </trkpt>
      <trkpt lat="47.047" lon="5.80625">
        <ele>249.6</ele>
        <time>2022-07-11T11:56:52Z</time>
      </trkpt>
      <trkpt lat="47.04696" lon="5.80625">
        <ele>249.12</ele>
        <time>2022-07-11T11:56:53Z</time>
      </trkpt>
      <trkpt lat="47.04691" lon="5.80626">
        <ele>249.6</ele>
        <time>2022-07-11T11:56:54Z</time>
      </trkpt>
      <trkpt lat="47.04651" lon="5.80633">
        <ele>248.16</ele>
        <time>2022-07-11T11:57:04Z</time>
      </trkpt>
      <trkpt lat="47.04648" lon="5.80634">
        <ele>248.16</ele>
        <time>2022-07-11T11:57:06Z</time>
      </trkpt>
      <trkpt lat="47.04644" lon="5.80637">
        <ele>247.68</ele>
        <time>2022-07-11T11:57:10Z</time>
      </trkpt>
      <trkpt lat="47.04644" lon="5.80638">
        <ele>247.68</ele>
        <time>2022-07-11T11:57:11Z</time>
      </trkpt>
      <trkpt lat="47.04645" lon="5.80639">
        <ele>248.16</ele>
        <time>2022-07-11T11:57:12Z</time>
      </trkpt>
      <trkpt lat="47.04646" lon="5.80639">
        <ele>247.68</ele>
        <time>2022-07-11T11:57:13Z</time>
      </trkpt>
      <trkpt lat="47.04647" lon="5.80638">
        <ele>247.2</ele>
        <time>2022-07-11T11:57:14Z</time>
      </trkpt>
      <trkpt lat="47.04648" lon="5.80636">
        <ele>247.68</ele>
        <time>2022-07-11T11:57:15Z</time>
      </trkpt>
      <trkpt lat="47.04675" lon="5.80631">
        <ele>248.64</ele>
        <time>2022-07-11T11:57:29Z</time>
      </trkpt>
      <trkpt lat="47.04707" lon="5.80625">
        <ele>249.12</ele>
        <time>2022-07-11T11:57:43Z</time>
      </trkpt>
      <trkpt lat="47.0471" lon="5.8063">
        <ele>251.52</ele>
        <time>2022-07-11T11:57:45Z</time>
      </trkpt>
      <trkpt lat="47.04711" lon="5.80633">
        <ele>250.56</ele>
        <time>2022-07-11T11:57:46Z</time>
      </trkpt>
      <trkpt lat="47.04713" lon="5.80685">
        <ele>251.52</ele>
        <time>2022-07-11T11:58:01Z</time>
      </trkpt>
      <trkpt lat="47.04713" lon="5.80739">
        <ele>252.96</ele>
        <time>2022-07-11T11:58:15Z</time>
      </trkpt>
      <trkpt lat="47.04712" lon="5.80803">
        <ele>253.93</ele>
        <time>2022-07-11T11:58:29Z</time>
      </trkpt>
      <trkpt lat="47.0472" lon="5.80885">
        <ele>253.44</ele>
        <time>2022-07-11T11:58:45Z</time>
      </trkpt>
      <trkpt lat="47.04726" lon="5.80944">
        <ele>255.37</ele>
        <time>2022-07-11T11:58:58Z</time>
      </trkpt>
      <trkpt lat="47.04735" lon="5.81014">
        <ele>256.81</ele>
        <time>2022-07-11T11:59:17Z</time>
      </trkpt>
      <trkpt lat="47.04744" lon="5.81074">
        <ele>258.73</ele>
        <time>2022-07-11T11:59:33Z</time>
      </trkpt>
      <trkpt lat="47.04752" lon="5.81141">
        <ele>259.69</ele>
        <time>2022-07-11T11:59:48Z</time>
      </trkpt>
      <trkpt lat="47.04756" lon="5.81223">
        <ele>260.17</ele>
        <time>2022-07-11T12:00:04Z</time>
      </trkpt>
      <trkpt lat="47.04756" lon="5.81267">
        <ele>259.21</ele>
        <time>2022-07-11T12:00:09Z</time>
      </trkpt>
      <trkpt lat="47.04738" lon="5.81353">
        <ele>260.17</ele>
        <time>2022-07-11T12:00:23Z</time>
      </trkpt>
      <trkpt lat="47.0473" lon="5.81427">
        <ele>262.58</ele>
        <time>2022-07-11T12:00:38Z</time>
      </trkpt>
      <trkpt lat="47.04724" lon="5.81464">
        <ele>262.1</ele>
        <time>2022-07-11T12:00:44Z</time>
      </trkpt>
      <trkpt lat="47.04683" lon="5.81571">
        <ele>262.58</ele>
        <time>2022-07-11T12:01:03Z</time>
      </trkpt>
      <trkpt lat="47.04639" lon="5.81679">
        <ele>262.1</ele>
        <time>2022-07-11T12:01:19Z</time>
      </trkpt>
      <trkpt lat="47.04611" lon="5.8174">
        <ele>261.62</ele>
        <time>2022-07-11T12:01:28Z</time>
      </trkpt>
      <trkpt lat="47.04564" lon="5.81834">
        <ele>259.69</ele>
        <time>2022-07-11T12:01:41Z</time>
      </trkpt>
      <trkpt lat="47.04563" lon="5.81843">
        <ele>259.69</ele>
        <time>2022-07-11T12:01:42Z</time>
      </trkpt>
      <trkpt lat="47.0456" lon="5.81873">
        <ele>258.25</ele>
        <time>2022-07-11T12:01:47Z</time>
      </trkpt>
      <trkpt lat="47.04559" lon="5.81875">
        <ele>257.77</ele>
        <time>2022-07-11T12:01:48Z</time>
      </trkpt>
      <trkpt lat="47.04558" lon="5.81876">
        <ele>257.29</ele>
        <time>2022-07-11T12:01:49Z</time>
      </trkpt>
      <trkpt lat="47.04557" lon="5.81874">
        <ele>257.29</ele>
        <time>2022-07-11T12:02:06Z</time>
      </trkpt>
      <trkpt lat="47.04541" lon="5.81872">
        <ele>256.81</ele>
        <time>2022-07-11T12:02:13Z</time>
      </trkpt>
      <trkpt lat="47.04538" lon="5.81868">
        <ele>256.81</ele>
        <time>2022-07-11T12:02:14Z</time>
      </trkpt>
      <trkpt lat="47.04505" lon="5.81813">
        <ele>253.44</ele>
        <time>2022-07-11T12:02:23Z</time>
      </trkpt>
      <trkpt lat="47.04451" lon="5.81691">
        <ele>252.48</ele>
        <time>2022-07-11T12:02:37Z</time>
      </trkpt>
      <trkpt lat="47.04441" lon="5.81666">
        <ele>251.04</ele>
        <time>2022-07-11T12:02:40Z</time>
      </trkpt>
      <trkpt lat="47.04425" lon="5.8162">
        <ele>250.56</ele>
        <time>2022-07-11T12:02:47Z</time>
      </trkpt>
      <trkpt lat="47.04404" lon="5.81574">
        <ele>250.56</ele>
        <time>2022-07-11T12:02:58Z</time>
      </trkpt>
      <trkpt lat="47.04404" lon="5.81572">
        <ele>251.04</ele>
        <time>2022-07-11T12:03:16Z</time>
      </trkpt>
      <trkpt lat="47.04393" lon="5.81559">
        <ele>251.52</ele>
        <time>2022-07-11T12:03:31Z</time>
      </trkpt>
      <trkpt lat="47.0437" lon="5.81531">
        <ele>252</ele>
        <time>2022-07-11T12:03:45Z</time>
      </trkpt>
      <trkpt lat="47.04364" lon="5.81525">
        <ele>251.52</ele>
        <time>2022-07-11T12:03:50Z</time>
      </trkpt>
      <trkpt lat="47.04362" lon="5.81524">
        <ele>252</ele>
        <time>2022-07-11T12:03:51Z</time>
      </trkpt>
      <trkpt lat="47.04344" lon="5.815">
        <ele>251.52</ele>
        <time>2022-07-11T12:04:03Z</time>
      </trkpt>
      <trkpt lat="47.04344" lon="5.81499">
        <ele>251.52</ele>
        <time>2022-07-11T12:04:04Z</time>
      </trkpt>
      <trkpt lat="47.0434" lon="5.81495">
        <ele>251.52</ele>
        <time>2022-07-11T12:04:19Z</time>
      </trkpt>
      <trkpt lat="47.0434" lon="5.81498">
        <ele>252</ele>
        <time>2022-07-11T12:04:54Z</time>
      </trkpt>
      <trkpt lat="47.04339" lon="5.81496">
        <ele>251.52</ele>
        <time>2022-07-11T12:04:57Z</time>
      </trkpt>
      <trkpt lat="47.04313" lon="5.81468">
        <ele>251.52</ele>
        <time>2022-07-11T12:05:10Z</time>
      </trkpt>
      <trkpt lat="47.04271" lon="5.81453">
        <ele>250.08</ele>
        <time>2022-07-11T12:05:22Z</time>
      </trkpt>
      <trkpt lat="47.04259" lon="5.81454">
        <ele>249.6</ele>
        <time>2022-07-11T12:05:25Z</time>
      </trkpt>
      <trkpt lat="47.042" lon="5.81472">
        <ele>249.12</ele>
        <time>2022-07-11T12:05:39Z</time>
      </trkpt>
      <trkpt lat="47.04145" lon="5.81487">
        <ele>249.12</ele>
        <time>2022-07-11T12:05:55Z</time>
      </trkpt>
      <trkpt lat="47.04101" lon="5.8147">
        <ele>249.12</ele>
        <time>2022-07-11T12:06:09Z</time>
      </trkpt>
      <trkpt lat="47.04054" lon="5.81445">
        <ele>249.12</ele>
        <time>2022-07-11T12:06:25Z</time>
      </trkpt>
      <trkpt lat="47.04008" lon="5.81422">
        <ele>250.08</ele>
        <time>2022-07-11T12:06:41Z</time>
      </trkpt>
      <trkpt lat="47.03991" lon="5.81422">
        <ele>252</ele>
        <time>2022-07-11T12:06:50Z</time>
      </trkpt>
      <trkpt lat="47.03979" lon="5.814">
        <ele>253.93</ele>
        <time>2022-07-11T12:07:03Z</time>
      </trkpt>
      <trkpt lat="47.0397" lon="5.81367">
        <ele>257.29</ele>
        <time>2022-07-11T12:07:18Z</time>
      </trkpt>
      <trkpt lat="47.03958" lon="5.81329">
        <ele>259.69</ele>
        <time>2022-07-11T12:07:34Z</time>
      </trkpt>
      <trkpt lat="47.03937" lon="5.81308">
        <ele>262.1</ele>
        <time>2022-07-11T12:07:50Z</time>
      </trkpt>
      <trkpt lat="47.03909" lon="5.81299">
        <ele>261.14</ele>
        <time>2022-07-11T12:08:01Z</time>
      </trkpt>
      <trkpt lat="47.03905" lon="5.813">
        <ele>261.14</ele>
        <time>2022-07-11T12:08:02Z</time>
      </trkpt>
      <trkpt lat="47.03901" lon="5.81303">
        <ele>260.65</ele>
        <time>2022-07-11T12:08:03Z</time>
      </trkpt>
      <trkpt lat="47.03898" lon="5.81306">
        <ele>261.14</ele>
        <time>2022-07-11T12:08:04Z</time>
      </trkpt>
      <trkpt lat="47.03894" lon="5.8131">
        <ele>261.14</ele>
        <time>2022-07-11T12:08:05Z</time>
      </trkpt>
      <trkpt lat="47.03887" lon="5.81317">
        <ele>260.65</ele>
        <time>2022-07-11T12:08:07Z</time>
      </trkpt>
      <trkpt lat="47.03874" lon="5.81323">
        <ele>261.14</ele>
        <time>2022-07-11T12:08:10Z</time>
      </trkpt>
      <trkpt lat="47.0387" lon="5.81323">
        <ele>261.14</ele>
        <time>2022-07-11T12:08:11Z</time>
      </trkpt>
      <trkpt lat="47.03866" lon="5.81323">
        <ele>260.65</ele>
        <time>2022-07-11T12:08:12Z</time>
      </trkpt>
      <trkpt lat="47.03837" lon="5.81318">
        <ele>262.1</ele>
        <time>2022-07-11T12:08:25Z</time>
      </trkpt>
      <trkpt lat="47.03835" lon="5.81318">
        <ele>262.58</ele>
        <time>2022-07-11T12:08:26Z</time>
      </trkpt>
      <trkpt lat="47.03834" lon="5.81319">
        <ele>262.1</ele>
        <time>2022-07-11T12:08:27Z</time>
      </trkpt>
      <trkpt lat="47.03818" lon="5.81348">
        <ele>264.02</ele>
        <time>2022-07-11T12:08:42Z</time>
      </trkpt>
      <trkpt lat="47.038" lon="5.81378">
        <ele>264.5</ele>
        <time>2022-07-11T12:08:57Z</time>
      </trkpt>
      <trkpt lat="47.03764" lon="5.814">
        <ele>263.54</ele>
        <time>2022-07-11T12:09:09Z</time>
      </trkpt>
      <trkpt lat="47.03742" lon="5.81416">
        <ele>263.06</ele>
        <time>2022-07-11T12:09:14Z</time>
      </trkpt>
      <trkpt lat="47.03738" lon="5.81419">
        <ele>263.06</ele>
        <time>2022-07-11T12:09:15Z</time>
      </trkpt>
      <trkpt lat="47.03733" lon="5.81422">
        <ele>263.06</ele>
        <time>2022-07-11T12:09:16Z</time>
      </trkpt>
      <trkpt lat="47.03729" lon="5.81424">
        <ele>262.58</ele>
        <time>2022-07-11T12:09:17Z</time>
      </trkpt>
      <trkpt lat="47.03724" lon="5.81425">
        <ele>262.1</ele>
        <time>2022-07-11T12:09:18Z</time>
      </trkpt>
      <trkpt lat="47.03646" lon="5.81429">
        <ele>261.14</ele>
        <time>2022-07-11T12:09:34Z</time>
      </trkpt>
      <trkpt lat="47.03582" lon="5.8142">
        <ele>258.25</ele>
        <time>2022-07-11T12:09:43Z</time>
      </trkpt>
      <trkpt lat="47.03565" lon="5.8142">
        <ele>257.29</ele>
        <time>2022-07-11T12:09:45Z</time>
      </trkpt>
      <trkpt lat="47.03494" lon="5.81416">
        <ele>253.44</ele>
        <time>2022-07-11T12:09:53Z</time>
      </trkpt>
      <trkpt lat="47.03413" lon="5.81398">
        <ele>253.93</ele>
        <time>2022-07-11T12:10:03Z</time>
      </trkpt>
      <trkpt lat="47.03392" lon="5.81401">
        <ele>252</ele>
        <time>2022-07-11T12:10:06Z</time>
      </trkpt>
      <trkpt lat="47.03333" lon="5.81424">
        <ele>251.52</ele>
        <time>2022-07-11T12:10:17Z</time>
      </trkpt>
      <trkpt lat="47.03282" lon="5.81431">
        <ele>251.04</ele>
        <time>2022-07-11T12:10:31Z</time>
      </trkpt>
      <trkpt lat="47.03226" lon="5.81429">
        <ele>251.04</ele>
        <time>2022-07-11T12:10:47Z</time>
      </trkpt>
      <trkpt lat="47.03156" lon="5.81437">
        <ele>251.52</ele>
        <time>2022-07-11T12:11:01Z</time>
      </trkpt>
      <trkpt lat="47.03077" lon="5.81457">
        <ele>252</ele>
        <time>2022-07-11T12:11:16Z</time>
      </trkpt>
      <trkpt lat="47.02989" lon="5.81468">
        <ele>252.48</ele>
        <time>2022-07-11T12:11:32Z</time>
      </trkpt>
      <trkpt lat="47.02893" lon="5.8146">
        <ele>252.48</ele>
        <time>2022-07-11T12:11:50Z</time>
      </trkpt>
      <trkpt lat="47.02803" lon="5.81473">
        <ele>252.48</ele>
        <time>2022-07-11T12:12:07Z</time>
      </trkpt>
      <trkpt lat="47.02798" lon="5.81474">
        <ele>252.96</ele>
        <time>2022-07-11T12:12:08Z</time>
      </trkpt>
      <trkpt lat="47.02721" lon="5.8151">
        <ele>252.48</ele>
        <time>2022-07-11T12:12:23Z</time>
      </trkpt>
      <trkpt lat="47.02647" lon="5.815">
        <ele>252.96</ele>
        <time>2022-07-11T12:12:36Z</time>
      </trkpt>
      <trkpt lat="47.02642" lon="5.81499">
        <ele>253.44</ele>
        <time>2022-07-11T12:12:37Z</time>
      </trkpt>
      <trkpt lat="47.02552" lon="5.81467">
        <ele>253.93</ele>
        <time>2022-07-11T12:12:55Z</time>
      </trkpt>
      <trkpt lat="47.02453" lon="5.81425">
        <ele>252.96</ele>
        <time>2022-07-11T12:13:13Z</time>
      </trkpt>
      <trkpt lat="47.02402" lon="5.81397">
        <ele>254.89</ele>
        <time>2022-07-11T12:13:22Z</time>
      </trkpt>
      <trkpt lat="47.02387" lon="5.81386">
        <ele>253.44</ele>
        <time>2022-07-11T12:13:25Z</time>
      </trkpt>
      <trkpt lat="47.02301" lon="5.81307">
        <ele>253.93</ele>
        <time>2022-07-11T12:13:43Z</time>
      </trkpt>
      <trkpt lat="47.02228" lon="5.81243">
        <ele>254.41</ele>
        <time>2022-07-11T12:13:59Z</time>
      </trkpt>
      <trkpt lat="47.02175" lon="5.81192">
        <ele>254.41</ele>
        <time>2022-07-11T12:14:11Z</time>
      </trkpt>
      <trkpt lat="47.02102" lon="5.8114">
        <ele>254.89</ele>
        <time>2022-07-11T12:14:27Z</time>
      </trkpt>
      <trkpt lat="47.02002" lon="5.81089">
        <ele>253.93</ele>
        <time>2022-07-11T12:14:48Z</time>
      </trkpt>
      <trkpt lat="47.01922" lon="5.81046">
        <ele>254.89</ele>
        <time>2022-07-11T12:15:05Z</time>
      </trkpt>
      <trkpt lat="47.01825" lon="5.81009">
        <ele>254.89</ele>
        <time>2022-07-11T12:15:24Z</time>
      </trkpt>
      <trkpt lat="47.01786" lon="5.80998">
        <ele>255.85</ele>
        <time>2022-07-11T12:15:32Z</time>
      </trkpt>
      <trkpt lat="47.01781" lon="5.80996">
        <ele>255.85</ele>
        <time>2022-07-11T12:15:33Z</time>
      </trkpt>
      <trkpt lat="47.01754" lon="5.80985">
        <ele>256.81</ele>
        <time>2022-07-11T12:15:39Z</time>
      </trkpt>
      <trkpt lat="47.01749" lon="5.80983">
        <ele>256.81</ele>
        <time>2022-07-11T12:15:40Z</time>
      </trkpt>
      <trkpt lat="47.01745" lon="5.80981">
        <ele>256.81</ele>
        <time>2022-07-11T12:15:41Z</time>
      </trkpt>
      <trkpt lat="47.01732" lon="5.80976">
        <ele>256.81</ele>
        <time>2022-07-11T12:15:44Z</time>
      </trkpt>
      <trkpt lat="47.01727" lon="5.80974">
        <ele>257.29</ele>
        <time>2022-07-11T12:15:45Z</time>
      </trkpt>
      <trkpt lat="47.01653" lon="5.80934">
        <ele>257.77</ele>
        <time>2022-07-11T12:16:01Z</time>
      </trkpt>
      <trkpt lat="47.01581" lon="5.80909">
        <ele>257.77</ele>
        <time>2022-07-11T12:16:16Z</time>
      </trkpt>
      <trkpt lat="47.01535" lon="5.8089">
        <ele>257.77</ele>
        <time>2022-07-11T12:16:26Z</time>
      </trkpt>
      <trkpt lat="47.01531" lon="5.80888">
        <ele>257.77</ele>
        <time>2022-07-11T12:16:27Z</time>
      </trkpt>
      <trkpt lat="47.01473" lon="5.8086">
        <ele>259.21</ele>
        <time>2022-07-11T12:16:40Z</time>
      </trkpt>
      <trkpt lat="47.01412" lon="5.80831">
        <ele>260.17</ele>
        <time>2022-07-11T12:16:54Z</time>
      </trkpt>
      <trkpt lat="47.01326" lon="5.80812">
        <ele>259.21</ele>
        <time>2022-07-11T12:17:11Z</time>
      </trkpt>
      <trkpt lat="47.01316" lon="5.8081">
        <ele>259.21</ele>
        <time>2022-07-11T12:17:13Z</time>
      </trkpt>
      <trkpt lat="47.01311" lon="5.80809">
        <ele>258.73</ele>
        <time>2022-07-11T12:17:14Z</time>
      </trkpt>
      <trkpt lat="47.01301" lon="5.80808">
        <ele>259.21</ele>
        <time>2022-07-11T12:17:16Z</time>
      </trkpt>
      <trkpt lat="47.01202" lon="5.80805">
        <ele>258.73</ele>
        <time>2022-07-11T12:17:34Z</time>
      </trkpt>
      <trkpt lat="47.01152" lon="5.80802">
        <ele>258.73</ele>
        <time>2022-07-11T12:17:44Z</time>
      </trkpt>
      <trkpt lat="47.01077" lon="5.808">
        <ele>260.65</ele>
        <time>2022-07-11T12:18:00Z</time>
      </trkpt>
      <trkpt lat="47.01036" lon="5.80804">
        <ele>260.65</ele>
        <time>2022-07-11T12:18:10Z</time>
      </trkpt>
      <trkpt lat="47.01028" lon="5.80804">
        <ele>260.65</ele>
        <time>2022-07-11T12:18:12Z</time>
      </trkpt>
      <trkpt lat="47.01023" lon="5.80804">
        <ele>260.17</ele>
        <time>2022-07-11T12:18:13Z</time>
      </trkpt>
      <trkpt lat="47.01005" lon="5.80806">
        <ele>259.69</ele>
        <time>2022-07-11T12:18:17Z</time>
      </trkpt>
      <trkpt lat="47.01" lon="5.80806">
        <ele>259.21</ele>
        <time>2022-07-11T12:18:18Z</time>
      </trkpt>
      <trkpt lat="47.00921" lon="5.80819">
        <ele>260.17</ele>
        <time>2022-07-11T12:18:35Z</time>
      </trkpt>
      <trkpt lat="47.00894" lon="5.80825">
        <ele>260.65</ele>
        <time>2022-07-11T12:18:41Z</time>
      </trkpt>
      <trkpt lat="47.00839" lon="5.80848">
        <ele>260.17</ele>
        <time>2022-07-11T12:18:55Z</time>
      </trkpt>
      <trkpt lat="47.00794" lon="5.8087">
        <ele>258.73</ele>
        <time>2022-07-11T12:19:05Z</time>
      </trkpt>
      <trkpt lat="47.00789" lon="5.80873">
        <ele>258.73</ele>
        <time>2022-07-11T12:19:06Z</time>
      </trkpt>
      <trkpt lat="47.00748" lon="5.80895">
        <ele>260.17</ele>
        <time>2022-07-11T12:19:15Z</time>
      </trkpt>
      <trkpt lat="47.00674" lon="5.80959">
        <ele>261.62</ele>
        <time>2022-07-11T12:19:33Z</time>
      </trkpt>
      <trkpt lat="47.00662" lon="5.80969">
        <ele>261.14</ele>
        <time>2022-07-11T12:19:36Z</time>
      </trkpt>
      <trkpt lat="47.00658" lon="5.80971">
        <ele>261.62</ele>
        <time>2022-07-11T12:19:37Z</time>
      </trkpt>
      <trkpt lat="47.00654" lon="5.80974">
        <ele>262.1</ele>
        <time>2022-07-11T12:19:38Z</time>
      </trkpt>
      <trkpt lat="47.00651" lon="5.80977">
        <ele>261.62</ele>
        <time>2022-07-11T12:19:39Z</time>
      </trkpt>
      <trkpt lat="47.00648" lon="5.80981">
        <ele>261.62</ele>
        <time>2022-07-11T12:19:40Z</time>
      </trkpt>
      <trkpt lat="47.00644" lon="5.80985">
        <ele>261.14</ele>
        <time>2022-07-11T12:19:41Z</time>
      </trkpt>
      <trkpt lat="47.00593" lon="5.81043">
        <ele>262.1</ele>
        <time>2022-07-11T12:19:56Z</time>
      </trkpt>
      <trkpt lat="47.00549" lon="5.81107">
        <ele>262.58</ele>
        <time>2022-07-11T12:20:10Z</time>
      </trkpt>
      <trkpt lat="47.00534" lon="5.81143">
        <ele>263.06</ele>
        <time>2022-07-11T12:20:17Z</time>
      </trkpt>
      <trkpt lat="47.00503" lon="5.81241">
        <ele>261.62</ele>
        <time>2022-07-11T12:20:32Z</time>
      </trkpt>
      <trkpt lat="47.00488" lon="5.81307">
        <ele>259.21</ele>
        <time>2022-07-11T12:20:40Z</time>
      </trkpt>
      <trkpt lat="47.00484" lon="5.81314">
        <ele>259.21</ele>
        <time>2022-07-11T12:20:41Z</time>
      </trkpt>
      <trkpt lat="47.00481" lon="5.81321">
        <ele>258.73</ele>
        <time>2022-07-11T12:20:42Z</time>
      </trkpt>
      <trkpt lat="47.0045" lon="5.81365">
        <ele>261.62</ele>
        <time>2022-07-11T12:20:53Z</time>
      </trkpt>
      <trkpt lat="47.00421" lon="5.81406">
        <ele>262.1</ele>
        <time>2022-07-11T12:21:05Z</time>
      </trkpt>
      <trkpt lat="47.00397" lon="5.81464">
        <ele>263.06</ele>
        <time>2022-07-11T12:21:18Z</time>
      </trkpt>
      <trkpt lat="47.00388" lon="5.81495">
        <ele>263.06</ele>
        <time>2022-07-11T12:21:24Z</time>
      </trkpt>
      <trkpt lat="47.00362" lon="5.8159">
        <ele>261.62</ele>
        <time>2022-07-11T12:21:40Z</time>
      </trkpt>
      <trkpt lat="47.00343" lon="5.81655">
        <ele>263.06</ele>
        <time>2022-07-11T12:21:54Z</time>
      </trkpt>
      <trkpt lat="47.00331" lon="5.81719">
        <ele>263.06</ele>
        <time>2022-07-11T12:22:10Z</time>
      </trkpt>
      <trkpt lat="47.00326" lon="5.81802">
        <ele>260.65</ele>
        <time>2022-07-11T12:22:21Z</time>
      </trkpt>
      <trkpt lat="47.00327" lon="5.81811">
        <ele>261.14</ele>
        <time>2022-07-11T12:22:22Z</time>
      </trkpt>
      <trkpt lat="47.00353" lon="5.81948">
        <ele>259.69</ele>
        <time>2022-07-11T12:22:39Z</time>
      </trkpt>
      <trkpt lat="47.00376" lon="5.82065">
        <ele>260.17</ele>
        <time>2022-07-11T12:22:58Z</time>
      </trkpt>
      <trkpt lat="47.00376" lon="5.82173">
        <ele>260.17</ele>
        <time>2022-07-11T12:23:16Z</time>
      </trkpt>
      <trkpt lat="47.00375" lon="5.82179">
        <ele>260.65</ele>
        <time>2022-07-11T12:23:18Z</time>
      </trkpt>
      <trkpt lat="47.00375" lon="5.82181">
        <ele>260.65</ele>
        <time>2022-07-11T12:23:19Z</time>
      </trkpt>
      <trkpt lat="47.00376" lon="5.82183">
        <ele>260.65</ele>
        <time>2022-07-11T12:23:20Z</time>
      </trkpt>
      <trkpt lat="47.00376" lon="5.82185">
        <ele>260.65</ele>
        <time>2022-07-11T12:23:21Z</time>
      </trkpt>
      <trkpt lat="47.00377" lon="5.82188">
        <ele>260.65</ele>
        <time>2022-07-11T12:23:22Z</time>
      </trkpt>
      <trkpt lat="47.00378" lon="5.82189">
        <ele>260.65</ele>
        <time>2022-07-11T12:23:23Z</time>
      </trkpt>
      <trkpt lat="47.0038" lon="5.82192">
        <ele>259.69</ele>
        <time>2022-07-11T12:23:24Z</time>
      </trkpt>
      <trkpt lat="47.00381" lon="5.82194">
        <ele>260.17</ele>
        <time>2022-07-11T12:23:25Z</time>
      </trkpt>
      <trkpt lat="47.00383" lon="5.82198">
        <ele>260.17</ele>
        <time>2022-07-11T12:23:26Z</time>
      </trkpt>
      <trkpt lat="47.00386" lon="5.82202">
        <ele>259.21</ele>
        <time>2022-07-11T12:23:27Z</time>
      </trkpt>
      <trkpt lat="47.00387" lon="5.82205">
        <ele>259.69</ele>
        <time>2022-07-11T12:23:28Z</time>
      </trkpt>
      <trkpt lat="47.00389" lon="5.82209">
        <ele>259.21</ele>
        <time>2022-07-11T12:23:29Z</time>
      </trkpt>
      <trkpt lat="47.0039" lon="5.82211">
        <ele>259.21</ele>
        <time>2022-07-11T12:23:30Z</time>
      </trkpt>
      <trkpt lat="47.00391" lon="5.82216">
        <ele>258.73</ele>
        <time>2022-07-11T12:23:42Z</time>
      </trkpt>
      <trkpt lat="47.00395" lon="5.82214">
        <ele>258.25</ele>
        <time>2022-07-11T12:24:16Z</time>
      </trkpt>
      <trkpt lat="47.00393" lon="5.82216">
        <ele>257.77</ele>
        <time>2022-07-11T12:24:55Z</time>
      </trkpt>
      <trkpt lat="47.00391" lon="5.82213">
        <ele>256.81</ele>
        <time>2022-07-11T12:25:31Z</time>
      </trkpt>
      <trkpt lat="47.00391" lon="5.82216">
        <ele>257.29</ele>
        <time>2022-07-11T12:26:20Z</time>
      </trkpt>
      <trkpt lat="47.00389" lon="5.82217">
        <ele>257.77</ele>
        <time>2022-07-11T12:27:02Z</time>
      </trkpt>
      <trkpt lat="47.00392" lon="5.82217">
        <ele>257.29</ele>
        <time>2022-07-11T12:27:42Z</time>
      </trkpt>
      <trkpt lat="47.00392" lon="5.82218">
        <ele>258.25</ele>
        <time>2022-07-11T12:28:19Z</time>
      </trkpt>
      <trkpt lat="47.00386" lon="5.82224">
        <ele>258.73</ele>
        <time>2022-07-11T12:28:30Z</time>
      </trkpt>
      <trkpt lat="47.00378" lon="5.82226">
        <ele>260.17</ele>
        <time>2022-07-11T12:28:46Z</time>
      </trkpt>
      <trkpt lat="47.00379" lon="5.82226">
        <ele>260.17</ele>
        <time>2022-07-11T12:29:14Z</time>
      </trkpt>
      <trkpt lat="47.00375" lon="5.8223">
        <ele>259.69</ele>
        <time>2022-07-11T12:29:38Z</time>
      </trkpt>
      <trkpt lat="47.00367" lon="5.82264">
        <ele>259.69</ele>
        <time>2022-07-11T12:29:51Z</time>
      </trkpt>
      <trkpt lat="47.00359" lon="5.82316">
        <ele>259.21</ele>
        <time>2022-07-11T12:30:06Z</time>
      </trkpt>
      <trkpt lat="47.0034" lon="5.82343">
        <ele>259.21</ele>
        <time>2022-07-11T12:30:17Z</time>
      </trkpt>
      <trkpt lat="47.00324" lon="5.82354">
        <ele>259.69</ele>
        <time>2022-07-11T12:30:24Z</time>
      </trkpt>
      <trkpt lat="47.00317" lon="5.82368">
        <ele>259.21</ele>
        <time>2022-07-11T12:30:29Z</time>
      </trkpt>
      <trkpt lat="47.00315" lon="5.82369">
        <ele>259.21</ele>
        <time>2022-07-11T12:30:30Z</time>
      </trkpt>
      <trkpt lat="47.00257" lon="5.82387">
        <ele>259.69</ele>
        <time>2022-07-11T12:30:48Z</time>
      </trkpt>
      <trkpt lat="47.00206" lon="5.82403">
        <ele>259.21</ele>
        <time>2022-07-11T12:31:03Z</time>
      </trkpt>
      <trkpt lat="47.00165" lon="5.82415">
        <ele>260.65</ele>
        <time>2022-07-11T12:31:17Z</time>
      </trkpt>
      <trkpt lat="47.00131" lon="5.82429">
        <ele>263.06</ele>
        <time>2022-07-11T12:31:31Z</time>
      </trkpt>
      <trkpt lat="47.00102" lon="5.82451">
        <ele>263.54</ele>
        <time>2022-07-11T12:31:45Z</time>
      </trkpt>
      <trkpt lat="47.00089" lon="5.82487">
        <ele>264.02</ele>
        <time>2022-07-11T12:31:53Z</time>
      </trkpt>
      <trkpt lat="47.00064" lon="5.82496">
        <ele>264.02</ele>
        <time>2022-07-11T12:32:01Z</time>
      </trkpt>
      <trkpt lat="47.00012" lon="5.82466">
        <ele>264.5</ele>
        <time>2022-07-11T12:32:16Z</time>
      </trkpt>
      <trkpt lat="47.00007" lon="5.82464">
        <ele>264.02</ele>
        <time>2022-07-11T12:32:17Z</time>
      </trkpt>
      <trkpt lat="46.99948" lon="5.82412">
        <ele>265.46</ele>
        <time>2022-07-11T12:32:33Z</time>
      </trkpt>
      <trkpt lat="46.99897" lon="5.82342">
        <ele>266.42</ele>
        <time>2022-07-11T12:32:51Z</time>
      </trkpt>
      <trkpt lat="46.99848" lon="5.82294">
        <ele>267.38</ele>
        <time>2022-07-11T12:33:06Z</time>
      </trkpt>
      <trkpt lat="46.99772" lon="5.82265">
        <ele>266.42</ele>
        <time>2022-07-11T12:33:22Z</time>
      </trkpt>
      <trkpt lat="46.99766" lon="5.82264">
        <ele>266.42</ele>
        <time>2022-07-11T12:33:23Z</time>
      </trkpt>
      <trkpt lat="46.9969" lon="5.82258">
        <ele>266.42</ele>
        <time>2022-07-11T12:33:38Z</time>
      </trkpt>
      <trkpt lat="46.996" lon="5.8226">
        <ele>266.42</ele>
        <time>2022-07-11T12:33:57Z</time>
      </trkpt>
      <trkpt lat="46.99549" lon="5.82253">
        <ele>266.42</ele>
        <time>2022-07-11T12:34:08Z</time>
      </trkpt>
      <trkpt lat="46.99545" lon="5.8225">
        <ele>265.94</ele>
        <time>2022-07-11T12:34:09Z</time>
      </trkpt>
      <trkpt lat="46.99541" lon="5.82247">
        <ele>265.94</ele>
        <time>2022-07-11T12:34:10Z</time>
      </trkpt>
      <trkpt lat="46.99536" lon="5.82244">
        <ele>265.94</ele>
        <time>2022-07-11T12:34:11Z</time>
      </trkpt>
      <trkpt lat="46.99532" lon="5.82243">
        <ele>266.42</ele>
        <time>2022-07-11T12:34:12Z</time>
      </trkpt>
      <trkpt lat="46.99527" lon="5.82242">
        <ele>266.42</ele>
        <time>2022-07-11T12:34:13Z</time>
      </trkpt>
      <trkpt lat="46.99523" lon="5.82241">
        <ele>265.94</ele>
        <time>2022-07-11T12:34:14Z</time>
      </trkpt>
      <trkpt lat="46.99413" lon="5.82226">
        <ele>266.42</ele>
        <time>2022-07-11T12:34:37Z</time>
      </trkpt>
      <trkpt lat="46.99308" lon="5.82216">
        <ele>266.42</ele>
        <time>2022-07-11T12:34:56Z</time>
      </trkpt>
      <trkpt lat="46.99196" lon="5.82202">
        <ele>267.86</ele>
        <time>2022-07-11T12:35:15Z</time>
      </trkpt>
      <trkpt lat="46.99083" lon="5.82191">
        <ele>269.31</ele>
        <time>2022-07-11T12:35:35Z</time>
      </trkpt>
      <trkpt lat="46.98985" lon="5.82178">
        <ele>269.79</ele>
        <time>2022-07-11T12:35:53Z</time>
      </trkpt>
      <trkpt lat="46.98924" lon="5.82181">
        <ele>270.27</ele>
        <time>2022-07-11T12:36:04Z</time>
      </trkpt>
      <trkpt lat="46.98841" lon="5.82203">
        <ele>270.75</ele>
        <time>2022-07-11T12:36:19Z</time>
      </trkpt>
      <trkpt lat="46.98799" lon="5.82204">
        <ele>270.27</ele>
        <time>2022-07-11T12:36:27Z</time>
      </trkpt>
      <trkpt lat="46.98778" lon="5.82201">
        <ele>270.27</ele>
        <time>2022-07-11T12:36:31Z</time>
      </trkpt>
      <trkpt lat="46.98773" lon="5.82199">
        <ele>270.75</ele>
        <time>2022-07-11T12:36:32Z</time>
      </trkpt>
      <trkpt lat="46.98768" lon="5.82196">
        <ele>271.23</ele>
        <time>2022-07-11T12:36:33Z</time>
      </trkpt>
      <trkpt lat="46.98677" lon="5.8213">
        <ele>273.15</ele>
        <time>2022-07-11T12:36:53Z</time>
      </trkpt>
      <trkpt lat="46.98673" lon="5.82125">
        <ele>272.67</ele>
        <time>2022-07-11T12:36:54Z</time>
      </trkpt>
      <trkpt lat="46.98609" lon="5.82025">
        <ele>273.63</ele>
        <time>2022-07-11T12:37:12Z</time>
      </trkpt>
      <trkpt lat="46.98598" lon="5.82008">
        <ele>273.63</ele>
        <time>2022-07-11T12:37:15Z</time>
      </trkpt>
      <trkpt lat="46.9853" lon="5.81893">
        <ele>274.11</ele>
        <time>2022-07-11T12:37:35Z</time>
      </trkpt>
      <trkpt lat="46.98493" lon="5.81831">
        <ele>275.56</ele>
        <time>2022-07-11T12:37:46Z</time>
      </trkpt>
      <trkpt lat="46.98459" lon="5.81775">
        <ele>276.04</ele>
        <time>2022-07-11T12:37:56Z</time>
      </trkpt>
      <trkpt lat="46.98432" lon="5.8173">
        <ele>277</ele>
        <time>2022-07-11T12:38:04Z</time>
      </trkpt>
      <trkpt lat="46.98419" lon="5.81709">
        <ele>277.96</ele>
        <time>2022-07-11T12:38:08Z</time>
      </trkpt>
      <trkpt lat="46.98413" lon="5.81698">
        <ele>277</ele>
        <time>2022-07-11T12:38:10Z</time>
      </trkpt>
      <trkpt lat="46.98352" lon="5.81598">
        <ele>278.92</ele>
        <time>2022-07-11T12:38:30Z</time>
      </trkpt>
      <trkpt lat="46.98338" lon="5.81572">
        <ele>277.48</ele>
        <time>2022-07-11T12:38:35Z</time>
      </trkpt>
      <trkpt lat="46.98292" lon="5.81491">
        <ele>279.88</ele>
        <time>2022-07-11T12:38:52Z</time>
      </trkpt>
      <trkpt lat="46.98252" lon="5.81415">
        <ele>282.77</ele>
        <time>2022-07-11T12:39:11Z</time>
      </trkpt>
      <trkpt lat="46.98224" lon="5.81371">
        <ele>283.73</ele>
        <time>2022-07-11T12:39:26Z</time>
      </trkpt>
      <trkpt lat="46.98197" lon="5.81331">
        <ele>283.73</ele>
        <time>2022-07-11T12:39:42Z</time>
      </trkpt>
      <trkpt lat="46.98159" lon="5.81281">
        <ele>285.17</ele>
        <time>2022-07-11T12:39:58Z</time>
      </trkpt>
      <trkpt lat="46.98116" lon="5.81222">
        <ele>286.13</ele>
        <time>2022-07-11T12:40:15Z</time>
      </trkpt>
      <trkpt lat="46.98102" lon="5.8119">
        <ele>286.13</ele>
        <time>2022-07-11T12:40:22Z</time>
      </trkpt>
      <trkpt lat="46.98099" lon="5.81185">
        <ele>286.13</ele>
        <time>2022-07-11T12:40:23Z</time>
      </trkpt>
      <trkpt lat="46.98054" lon="5.81111">
        <ele>287.09</ele>
        <time>2022-07-11T12:40:40Z</time>
      </trkpt>
      <trkpt lat="46.98018" lon="5.81047">
        <ele>288.53</ele>
        <time>2022-07-11T12:40:56Z</time>
      </trkpt>
      <trkpt lat="46.97994" lon="5.81001">
        <ele>290.46</ele>
        <time>2022-07-11T12:41:11Z</time>
      </trkpt>
      <trkpt lat="46.9797" lon="5.80959">
        <ele>292.86</ele>
        <time>2022-07-11T12:41:26Z</time>
      </trkpt>
      <trkpt lat="46.9794" lon="5.80912">
        <ele>295.26</ele>
        <time>2022-07-11T12:41:42Z</time>
      </trkpt>
      <trkpt lat="46.9791" lon="5.80866">
        <ele>295.74</ele>
        <time>2022-07-11T12:41:59Z</time>
      </trkpt>
      <trkpt lat="46.97882" lon="5.80812">
        <ele>296.22</ele>
        <time>2022-07-11T12:42:15Z</time>
      </trkpt>
      <trkpt lat="46.9785" lon="5.8076">
        <ele>298.63</ele>
        <time>2022-07-11T12:42:33Z</time>
      </trkpt>
      <trkpt lat="46.97825" lon="5.80729">
        <ele>301.99</ele>
        <time>2022-07-11T12:42:46Z</time>
      </trkpt>
      <trkpt lat="46.97817" lon="5.80735">
        <ele>301.03</ele>
        <time>2022-07-11T12:42:50Z</time>
      </trkpt>
      <trkpt lat="46.97815" lon="5.80733">
        <ele>301.51</ele>
        <time>2022-07-11T12:42:51Z</time>
      </trkpt>
      <trkpt lat="46.97812" lon="5.80733">
        <ele>301.51</ele>
        <time>2022-07-11T12:42:52Z</time>
      </trkpt>
      <trkpt lat="46.97795" lon="5.80729">
        <ele>300.55</ele>
        <time>2022-07-11T12:42:57Z</time>
      </trkpt>
      <trkpt lat="46.97792" lon="5.80733">
        <ele>300.55</ele>
        <time>2022-07-11T12:42:58Z</time>
      </trkpt>
      <trkpt lat="46.9779" lon="5.80737">
        <ele>300.55</ele>
        <time>2022-07-11T12:42:59Z</time>
      </trkpt>
      <trkpt lat="46.97788" lon="5.80742">
        <ele>300.55</ele>
        <time>2022-07-11T12:43:00Z</time>
      </trkpt>
      <trkpt lat="46.97785" lon="5.80753">
        <ele>299.59</ele>
        <time>2022-07-11T12:43:02Z</time>
      </trkpt>
      <trkpt lat="46.97782" lon="5.80759">
        <ele>299.11</ele>
        <time>2022-07-11T12:43:03Z</time>
      </trkpt>
      <trkpt lat="46.97745" lon="5.80843">
        <ele>296.7</ele>
        <time>2022-07-11T12:43:14Z</time>
      </trkpt>
      <trkpt lat="46.97689" lon="5.80969">
        <ele>293.82</ele>
        <time>2022-07-11T12:43:29Z</time>
      </trkpt>
      <trkpt lat="46.9764" lon="5.81079">
        <ele>292.38</ele>
        <time>2022-07-11T12:43:46Z</time>
      </trkpt>
      <trkpt lat="46.97625" lon="5.8111">
        <ele>293.82</ele>
        <time>2022-07-11T12:43:52Z</time>
      </trkpt>
      <trkpt lat="46.97622" lon="5.81114">
        <ele>293.34</ele>
        <time>2022-07-11T12:43:53Z</time>
      </trkpt>
      <trkpt lat="46.97561" lon="5.81189">
        <ele>292.86</ele>
        <time>2022-07-11T12:44:10Z</time>
      </trkpt>
      <trkpt lat="46.97557" lon="5.81194">
        <ele>292.86</ele>
        <time>2022-07-11T12:44:11Z</time>
      </trkpt>
      <trkpt lat="46.97552" lon="5.81199">
        <ele>292.38</ele>
        <time>2022-07-11T12:44:12Z</time>
      </trkpt>
      <trkpt lat="46.97466" lon="5.81299">
        <ele>291.9</ele>
        <time>2022-07-11T12:44:31Z</time>
      </trkpt>
      <trkpt lat="46.9742" lon="5.81354">
        <ele>295.26</ele>
        <time>2022-07-11T12:44:46Z</time>
      </trkpt>
      <trkpt lat="46.97417" lon="5.81357">
        <ele>295.26</ele>
        <time>2022-07-11T12:44:47Z</time>
      </trkpt>
      <trkpt lat="46.97364" lon="5.81415">
        <ele>296.7</ele>
        <time>2022-07-11T12:45:04Z</time>
      </trkpt>
      <trkpt lat="46.9736" lon="5.81419">
        <ele>296.7</ele>
        <time>2022-07-11T12:45:05Z</time>
      </trkpt>
      <trkpt lat="46.97328" lon="5.81454">
        <ele>296.7</ele>
        <time>2022-07-11T12:45:14Z</time>
      </trkpt>
      <trkpt lat="46.9729" lon="5.81494">
        <ele>297.67</ele>
        <time>2022-07-11T12:45:28Z</time>
      </trkpt>
      <trkpt lat="46.97288" lon="5.81493">
        <ele>297.18</ele>
        <time>2022-07-11T12:45:29Z</time>
      </trkpt>
      <trkpt lat="46.97285" lon="5.8149">
        <ele>297.67</ele>
        <time>2022-07-11T12:45:30Z</time>
      </trkpt>
      <trkpt lat="46.97282" lon="5.81486">
        <ele>296.7</ele>
        <time>2022-07-11T12:45:31Z</time>
      </trkpt>
      <trkpt lat="46.9728" lon="5.81482">
        <ele>296.7</ele>
        <time>2022-07-11T12:45:32Z</time>
      </trkpt>
      <trkpt lat="46.97279" lon="5.81478">
        <ele>297.67</ele>
        <time>2022-07-11T12:45:33Z</time>
      </trkpt>
      <trkpt lat="46.97265" lon="5.81453">
        <ele>298.15</ele>
        <time>2022-07-11T12:45:41Z</time>
      </trkpt>
      <trkpt lat="46.97263" lon="5.81453">
        <ele>298.63</ele>
        <time>2022-07-11T12:45:42Z</time>
      </trkpt>
      <trkpt lat="46.97245" lon="5.81476">
        <ele>301.51</ele>
        <time>2022-07-11T12:45:56Z</time>
      </trkpt>
      <trkpt lat="46.97221" lon="5.81502">
        <ele>302.47</ele>
        <time>2022-07-11T12:46:10Z</time>
      </trkpt>
      <trkpt lat="46.97177" lon="5.81528">
        <ele>302.95</ele>
        <time>2022-07-11T12:46:25Z</time>
      </trkpt>
      <trkpt lat="46.97138" lon="5.81548">
        <ele>303.43</ele>
        <time>2022-07-11T12:46:40Z</time>
      </trkpt>
      <trkpt lat="46.97083" lon="5.81571">
        <ele>304.39</ele>
        <time>2022-07-11T12:46:55Z</time>
      </trkpt>
      <trkpt lat="46.97002" lon="5.81599">
        <ele>305.36</ele>
        <time>2022-07-11T12:47:15Z</time>
      </trkpt>
      <trkpt lat="46.9693" lon="5.81639">
        <ele>305.84</ele>
        <time>2022-07-11T12:47:34Z</time>
      </trkpt>
      <trkpt lat="46.96863" lon="5.81689">
        <ele>306.32</ele>
        <time>2022-07-11T12:47:53Z</time>
      </trkpt>
      <trkpt lat="46.96795" lon="5.81749">
        <ele>307.28</ele>
        <time>2022-07-11T12:48:12Z</time>
      </trkpt>
      <trkpt lat="46.96725" lon="5.8183">
        <ele>307.76</ele>
        <time>2022-07-11T12:48:33Z</time>
      </trkpt>
      <trkpt lat="46.96666" lon="5.81922">
        <ele>309.2</ele>
        <time>2022-07-11T12:48:55Z</time>
      </trkpt>
      <trkpt lat="46.96636" lon="5.81958">
        <ele>305.84</ele>
        <time>2022-07-11T12:49:08Z</time>
      </trkpt>
      <trkpt lat="46.96634" lon="5.81963">
        <ele>305.36</ele>
        <time>2022-07-11T12:49:09Z</time>
      </trkpt>
      <trkpt lat="46.96636" lon="5.81969">
        <ele>307.28</ele>
        <time>2022-07-11T12:52:49Z</time>
      </trkpt>
      <trkpt lat="46.9664" lon="5.81966">
        <ele>307.28</ele>
        <time>2022-07-11T12:52:51Z</time>
      </trkpt>
      <trkpt lat="46.96642" lon="5.81965">
        <ele>307.76</ele>
        <time>2022-07-11T12:52:52Z</time>
      </trkpt>
      <trkpt lat="46.96645" lon="5.81964">
        <ele>307.28</ele>
        <time>2022-07-11T12:52:53Z</time>
      </trkpt>
      <trkpt lat="46.96695" lon="5.81952">
        <ele>308.24</ele>
        <time>2022-07-11T12:53:08Z</time>
      </trkpt>
      <trkpt lat="46.9674" lon="5.81951">
        <ele>307.76</ele>
        <time>2022-07-11T12:53:23Z</time>
      </trkpt>
      <trkpt lat="46.96782" lon="5.81946">
        <ele>309.68</ele>
        <time>2022-07-11T12:53:40Z</time>
      </trkpt>
      <trkpt lat="46.96784" lon="5.81947">
        <ele>309.68</ele>
        <time>2022-07-11T12:53:41Z</time>
      </trkpt>
      <trkpt lat="46.96786" lon="5.81949">
        <ele>310.16</ele>
        <time>2022-07-11T12:53:42Z</time>
      </trkpt>
      <trkpt lat="46.96783" lon="5.81952">
        <ele>310.64</ele>
        <time>2022-07-11T12:53:45Z</time>
      </trkpt>
      <trkpt lat="46.96781" lon="5.81953">
        <ele>310.64</ele>
        <time>2022-07-11T12:53:46Z</time>
      </trkpt>
      <trkpt lat="46.96779" lon="5.81954">
        <ele>310.64</ele>
        <time>2022-07-11T12:53:47Z</time>
      </trkpt>
      <trkpt lat="46.96738" lon="5.81981">
        <ele>312.57</ele>
        <time>2022-07-11T12:54:05Z</time>
      </trkpt>
      <trkpt lat="46.96691" lon="5.8201">
        <ele>314.49</ele>
        <time>2022-07-11T12:54:25Z</time>
      </trkpt>
      <trkpt lat="46.96656" lon="5.82036">
        <ele>315.45</ele>
        <time>2022-07-11T12:54:42Z</time>
      </trkpt>
      <trkpt lat="46.96624" lon="5.82062">
        <ele>316.89</ele>
        <time>2022-07-11T12:54:59Z</time>
      </trkpt>
      <trkpt lat="46.96608" lon="5.82089">
        <ele>318.81</ele>
        <time>2022-07-11T12:55:11Z</time>
      </trkpt>
      <trkpt lat="46.96589" lon="5.82152">
        <ele>320.26</ele>
        <time>2022-07-11T12:55:33Z</time>
      </trkpt>
      <trkpt lat="46.9658" lon="5.82218">
        <ele>321.7</ele>
        <time>2022-07-11T12:55:51Z</time>
      </trkpt>
      <trkpt lat="46.96573" lon="5.82288">
        <ele>323.62</ele>
        <time>2022-07-11T12:56:09Z</time>
      </trkpt>
      <trkpt lat="46.96563" lon="5.82372">
        <ele>326.99</ele>
        <time>2022-07-11T12:56:30Z</time>
      </trkpt>
      <trkpt lat="46.96554" lon="5.82444">
        <ele>330.35</ele>
        <time>2022-07-11T12:56:50Z</time>
      </trkpt>
      <trkpt lat="46.96538" lon="5.8251">
        <ele>331.79</ele>
        <time>2022-07-11T12:57:07Z</time>
      </trkpt>
      <trkpt lat="46.96511" lon="5.82595">
        <ele>332.27</ele>
        <time>2022-07-11T12:57:24Z</time>
      </trkpt>
      <trkpt lat="46.96483" lon="5.82676">
        <ele>334.68</ele>
        <time>2022-07-11T12:57:42Z</time>
      </trkpt>
      <trkpt lat="46.96451" lon="5.82746">
        <ele>336.12</ele>
        <time>2022-07-11T12:58:00Z</time>
      </trkpt>
      <trkpt lat="46.96399" lon="5.82819">
        <ele>336.6</ele>
        <time>2022-07-11T12:58:18Z</time>
      </trkpt>
      <trkpt lat="46.96374" lon="5.82848">
        <ele>339</ele>
        <time>2022-07-11T12:58:31Z</time>
      </trkpt>
      <trkpt lat="46.96332" lon="5.82902">
        <ele>339.96</ele>
        <time>2022-07-11T12:58:49Z</time>
      </trkpt>
      <trkpt lat="46.96273" lon="5.82992">
        <ele>337.08</ele>
        <time>2022-07-11T12:59:04Z</time>
      </trkpt>
      <trkpt lat="46.96198" lon="5.83134">
        <ele>334.68</ele>
        <time>2022-07-11T12:59:21Z</time>
      </trkpt>
      <trkpt lat="46.96141" lon="5.83249">
        <ele>335.16</ele>
        <time>2022-07-11T12:59:38Z</time>
      </trkpt>
      <trkpt lat="46.96099" lon="5.83336">
        <ele>336.12</ele>
        <time>2022-07-11T12:59:54Z</time>
      </trkpt>
      <trkpt lat="46.96058" lon="5.8342">
        <ele>338.04</ele>
        <time>2022-07-11T13:00:12Z</time>
      </trkpt>
      <trkpt lat="46.9602" lon="5.83503">
        <ele>338.52</ele>
        <time>2022-07-11T13:00:29Z</time>
      </trkpt>
      <trkpt lat="46.9598" lon="5.83582">
        <ele>339</ele>
        <time>2022-07-11T13:00:46Z</time>
      </trkpt>
      <trkpt lat="46.95961" lon="5.8361">
        <ele>338.04</ele>
        <time>2022-07-11T13:00:53Z</time>
      </trkpt>
      <trkpt lat="46.95957" lon="5.83615">
        <ele>337.56</ele>
        <time>2022-07-11T13:00:54Z</time>
      </trkpt>
      <trkpt lat="46.95952" lon="5.83619">
        <ele>338.04</ele>
        <time>2022-07-11T13:00:55Z</time>
      </trkpt>
      <trkpt lat="46.95947" lon="5.83621">
        <ele>338.04</ele>
        <time>2022-07-11T13:00:56Z</time>
      </trkpt>
      <trkpt lat="46.95942" lon="5.83623">
        <ele>338.04</ele>
        <time>2022-07-11T13:00:57Z</time>
      </trkpt>
      <trkpt lat="46.95937" lon="5.83624">
        <ele>337.56</ele>
        <time>2022-07-11T13:00:58Z</time>
      </trkpt>
      <trkpt lat="46.95932" lon="5.83626">
        <ele>338.04</ele>
        <time>2022-07-11T13:00:59Z</time>
      </trkpt>
      <trkpt lat="46.95928" lon="5.83629">
        <ele>338.04</ele>
        <time>2022-07-11T13:01:00Z</time>
      </trkpt>
      <trkpt lat="46.95924" lon="5.83631">
        <ele>338.52</ele>
        <time>2022-07-11T13:01:01Z</time>
      </trkpt>
      <trkpt lat="46.95919" lon="5.83631">
        <ele>338.52</ele>
        <time>2022-07-11T13:01:02Z</time>
      </trkpt>
      <trkpt lat="46.95915" lon="5.83632">
        <ele>338.04</ele>
        <time>2022-07-11T13:01:03Z</time>
      </trkpt>
      <trkpt lat="46.95911" lon="5.83631">
        <ele>338.04</ele>
        <time>2022-07-11T13:01:04Z</time>
      </trkpt>
      <trkpt lat="46.95907" lon="5.83631">
        <ele>338.04</ele>
        <time>2022-07-11T13:01:05Z</time>
      </trkpt>
      <trkpt lat="46.95903" lon="5.83632">
        <ele>338.04</ele>
        <time>2022-07-11T13:01:06Z</time>
      </trkpt>
      <trkpt lat="46.95899" lon="5.83636">
        <ele>338.04</ele>
        <time>2022-07-11T13:01:07Z</time>
      </trkpt>
      <trkpt lat="46.95896" lon="5.8364">
        <ele>338.04</ele>
        <time>2022-07-11T13:01:08Z</time>
      </trkpt>
      <trkpt lat="46.95894" lon="5.83646">
        <ele>338.04</ele>
        <time>2022-07-11T13:01:09Z</time>
      </trkpt>
      <trkpt lat="46.95891" lon="5.83651">
        <ele>338.04</ele>
        <time>2022-07-11T13:01:10Z</time>
      </trkpt>
      <trkpt lat="46.9589" lon="5.83657">
        <ele>337.56</ele>
        <time>2022-07-11T13:01:11Z</time>
      </trkpt>
      <trkpt lat="46.95888" lon="5.83662">
        <ele>338.04</ele>
        <time>2022-07-11T13:01:12Z</time>
      </trkpt>
      <trkpt lat="46.95884" lon="5.83673">
        <ele>338.04</ele>
        <time>2022-07-11T13:01:14Z</time>
      </trkpt>
      <trkpt lat="46.95876" lon="5.83721">
        <ele>334.68</ele>
        <time>2022-07-11T13:01:22Z</time>
      </trkpt>
      <trkpt lat="46.95876" lon="5.83722">
        <ele>335.16</ele>
        <time>2022-07-11T13:01:31Z</time>
      </trkpt>
      <trkpt lat="46.95874" lon="5.83723">
        <ele>334.68</ele>
        <time>2022-07-11T13:01:57Z</time>
      </trkpt>
      <trkpt lat="46.95877" lon="5.83726">
        <ele>335.16</ele>
        <time>2022-07-11T13:02:25Z</time>
      </trkpt>
      <trkpt lat="46.95877" lon="5.83726">
        <ele>334.68</ele>
        <time>2022-07-11T13:02:53Z</time>
      </trkpt>
      <trkpt lat="46.95875" lon="5.83731">
        <ele>334.68</ele>
        <time>2022-07-11T13:03:11Z</time>
      </trkpt>
      <trkpt lat="46.95875" lon="5.83734">
        <ele>334.68</ele>
        <time>2022-07-11T13:03:12Z</time>
      </trkpt>
      <trkpt lat="46.95875" lon="5.83736">
        <ele>334.68</ele>
        <time>2022-07-11T13:03:13Z</time>
      </trkpt>
      <trkpt lat="46.95876" lon="5.8374">
        <ele>334.68</ele>
        <time>2022-07-11T13:03:14Z</time>
      </trkpt>
      <trkpt lat="46.95877" lon="5.83744">
        <ele>334.68</ele>
        <time>2022-07-11T13:03:15Z</time>
      </trkpt>
      <trkpt lat="46.95877" lon="5.83747">
        <ele>334.2</ele>
        <time>2022-07-11T13:03:16Z</time>
      </trkpt>
      <trkpt lat="46.95869" lon="5.83819">
        <ele>334.2</ele>
        <time>2022-07-11T13:03:30Z</time>
      </trkpt>
      <trkpt lat="46.95852" lon="5.83883">
        <ele>333.23</ele>
        <time>2022-07-11T13:03:42Z</time>
      </trkpt>
      <trkpt lat="46.95832" lon="5.83946">
        <ele>330.35</ele>
        <time>2022-07-11T13:03:53Z</time>
      </trkpt>
      <trkpt lat="46.95806" lon="5.84003">
        <ele>326.99</ele>
        <time>2022-07-11T13:03:59Z</time>
      </trkpt>
      <trkpt lat="46.9579" lon="5.8403">
        <ele>326.5</ele>
        <time>2022-07-11T13:04:02Z</time>
      </trkpt>
      <trkpt lat="46.95781" lon="5.84043">
        <ele>324.58</ele>
        <time>2022-07-11T13:04:04Z</time>
      </trkpt>
      <trkpt lat="46.95777" lon="5.84049">
        <ele>323.62</ele>
        <time>2022-07-11T13:04:05Z</time>
      </trkpt>
      <trkpt lat="46.95773" lon="5.84054">
        <ele>323.14</ele>
        <time>2022-07-11T13:04:06Z</time>
      </trkpt>
      <trkpt lat="46.95768" lon="5.84058">
        <ele>322.18</ele>
        <time>2022-07-11T13:04:07Z</time>
      </trkpt>
      <trkpt lat="46.95763" lon="5.84063">
        <ele>321.7</ele>
        <time>2022-07-11T13:04:08Z</time>
      </trkpt>
      <trkpt lat="46.95759" lon="5.84069">
        <ele>321.22</ele>
        <time>2022-07-11T13:04:09Z</time>
      </trkpt>
      <trkpt lat="46.95733" lon="5.841">
        <ele>318.81</ele>
        <time>2022-07-11T13:04:14Z</time>
      </trkpt>
      <trkpt lat="46.95665" lon="5.84183">
        <ele>317.37</ele>
        <time>2022-07-11T13:04:28Z</time>
      </trkpt>
      <trkpt lat="46.95653" lon="5.84196">
        <ele>318.81</ele>
        <time>2022-07-11T13:04:38Z</time>
      </trkpt>
      <trkpt lat="46.95649" lon="5.84205">
        <ele>320.26</ele>
        <time>2022-07-11T13:04:50Z</time>
      </trkpt>
      <trkpt lat="46.95648" lon="5.84206">
        <ele>319.78</ele>
        <time>2022-07-11T13:05:04Z</time>
      </trkpt>
      <trkpt lat="46.95645" lon="5.84208">
        <ele>320.26</ele>
        <time>2022-07-11T13:05:41Z</time>
      </trkpt>
      <trkpt lat="46.9564" lon="5.84218">
        <ele>321.7</ele>
        <time>2022-07-11T13:05:50Z</time>
      </trkpt>
      <trkpt lat="46.95639" lon="5.84218">
        <ele>322.18</ele>
        <time>2022-07-11T13:05:51Z</time>
      </trkpt>
      <trkpt lat="46.95638" lon="5.84219">
        <ele>321.7</ele>
        <time>2022-07-11T13:05:52Z</time>
      </trkpt>
      <trkpt lat="46.95622" lon="5.8424">
        <ele>324.1</ele>
        <time>2022-07-11T13:06:10Z</time>
      </trkpt>
      <trkpt lat="46.95604" lon="5.84263">
        <ele>326.5</ele>
        <time>2022-07-11T13:06:28Z</time>
      </trkpt>
      <trkpt lat="46.95592" lon="5.84286">
        <ele>329.87</ele>
        <time>2022-07-11T13:06:45Z</time>
      </trkpt>
      <trkpt lat="46.95581" lon="5.84314">
        <ele>331.31</ele>
        <time>2022-07-11T13:07:03Z</time>
      </trkpt>
      <trkpt lat="46.95572" lon="5.84339">
        <ele>333.23</ele>
        <time>2022-07-11T13:07:19Z</time>
      </trkpt>
      <trkpt lat="46.95558" lon="5.84364">
        <ele>335.16</ele>
        <time>2022-07-11T13:07:35Z</time>
      </trkpt>
      <trkpt lat="46.95544" lon="5.84386">
        <ele>336.6</ele>
        <time>2022-07-11T13:07:51Z</time>
      </trkpt>
      <trkpt lat="46.95538" lon="5.84407">
        <ele>338.04</ele>
        <time>2022-07-11T13:08:06Z</time>
      </trkpt>
      <trkpt lat="46.9553" lon="5.84428">
        <ele>340.44</ele>
        <time>2022-07-11T13:08:24Z</time>
      </trkpt>
      <trkpt lat="46.95519" lon="5.84457">
        <ele>343.33</ele>
        <time>2022-07-11T13:08:42Z</time>
      </trkpt>
      <trkpt lat="46.95514" lon="5.84474">
        <ele>342.85</ele>
        <time>2022-07-11T13:08:54Z</time>
      </trkpt>
      <trkpt lat="46.955" lon="5.84509">
        <ele>343.33</ele>
        <time>2022-07-11T13:09:09Z</time>
      </trkpt>
      <trkpt lat="46.95484" lon="5.84551">
        <ele>344.29</ele>
        <time>2022-07-11T13:09:27Z</time>
      </trkpt>
      <trkpt lat="46.95478" lon="5.84575">
        <ele>346.21</ele>
        <time>2022-07-11T13:09:42Z</time>
      </trkpt>
      <trkpt lat="46.95467" lon="5.84607">
        <ele>348.62</ele>
        <time>2022-07-11T13:10:02Z</time>
      </trkpt>
      <trkpt lat="46.95466" lon="5.84609">
        <ele>349.1</ele>
        <time>2022-07-11T13:10:03Z</time>
      </trkpt>
      <trkpt lat="46.95465" lon="5.8461">
        <ele>348.62</ele>
        <time>2022-07-11T13:10:04Z</time>
      </trkpt>
      <trkpt lat="46.9546" lon="5.84629">
        <ele>349.58</ele>
        <time>2022-07-11T13:10:14Z</time>
      </trkpt>
      <trkpt lat="46.95444" lon="5.84685">
        <ele>350.54</ele>
        <time>2022-07-11T13:10:28Z</time>
      </trkpt>
      <trkpt lat="46.95422" lon="5.84751">
        <ele>350.06</ele>
        <time>2022-07-11T13:10:42Z</time>
      </trkpt>
      <trkpt lat="46.95396" lon="5.84828">
        <ele>350.54</ele>
        <time>2022-07-11T13:10:59Z</time>
      </trkpt>
      <trkpt lat="46.95366" lon="5.84923">
        <ele>348.62</ele>
        <time>2022-07-11T13:11:17Z</time>
      </trkpt>
      <trkpt lat="46.95364" lon="5.84928">
        <ele>349.58</ele>
        <time>2022-07-11T13:11:18Z</time>
      </trkpt>
      <trkpt lat="46.95363" lon="5.84933">
        <ele>349.58</ele>
        <time>2022-07-11T13:11:19Z</time>
      </trkpt>
      <trkpt lat="46.95322" lon="5.85052">
        <ele>348.13</ele>
        <time>2022-07-11T13:11:41Z</time>
      </trkpt>
      <trkpt lat="46.95286" lon="5.85159">
        <ele>348.62</ele>
        <time>2022-07-11T13:12:01Z</time>
      </trkpt>
      <trkpt lat="46.95264" lon="5.85244">
        <ele>348.13</ele>
        <time>2022-07-11T13:12:17Z</time>
      </trkpt>
      <trkpt lat="46.95248" lon="5.85318">
        <ele>347.17</ele>
        <time>2022-07-11T13:12:32Z</time>
      </trkpt>
      <trkpt lat="46.95247" lon="5.8532">
        <ele>347.65</ele>
        <time>2022-07-11T13:12:33Z</time>
      </trkpt>
      <trkpt lat="46.95246" lon="5.85321">
        <ele>347.65</ele>
        <time>2022-07-11T13:12:34Z</time>
      </trkpt>
      <trkpt lat="46.95242" lon="5.85327">
        <ele>347.17</ele>
        <time>2022-07-11T13:12:51Z</time>
      </trkpt>
      <trkpt lat="46.95242" lon="5.85328">
        <ele>347.17</ele>
        <time>2022-07-11T13:13:00Z</time>
      </trkpt>
      <trkpt lat="46.95243" lon="5.8533">
        <ele>347.17</ele>
        <time>2022-07-11T13:13:01Z</time>
      </trkpt>
      <trkpt lat="46.95244" lon="5.85332">
        <ele>347.65</ele>
        <time>2022-07-11T13:13:02Z</time>
      </trkpt>
      <trkpt lat="46.95244" lon="5.85335">
        <ele>347.65</ele>
        <time>2022-07-11T13:13:03Z</time>
      </trkpt>
      <trkpt lat="46.95243" lon="5.85339">
        <ele>347.17</ele>
        <time>2022-07-11T13:13:04Z</time>
      </trkpt>
      <trkpt lat="46.95242" lon="5.85342">
        <ele>347.17</ele>
        <time>2022-07-11T13:13:05Z</time>
      </trkpt>
      <trkpt lat="46.95241" lon="5.85346">
        <ele>347.17</ele>
        <time>2022-07-11T13:13:06Z</time>
      </trkpt>
      <trkpt lat="46.9524" lon="5.85351">
        <ele>347.17</ele>
        <time>2022-07-11T13:13:07Z</time>
      </trkpt>
      <trkpt lat="46.95239" lon="5.85356">
        <ele>346.69</ele>
        <time>2022-07-11T13:13:08Z</time>
      </trkpt>
      <trkpt lat="46.95238" lon="5.85362">
        <ele>346.69</ele>
        <time>2022-07-11T13:13:09Z</time>
      </trkpt>
      <trkpt lat="46.95218" lon="5.85454">
        <ele>347.17</ele>
        <time>2022-07-11T13:13:22Z</time>
      </trkpt>
      <trkpt lat="46.95201" lon="5.85496">
        <ele>347.65</ele>
        <time>2022-07-11T13:13:33Z</time>
      </trkpt>
      <trkpt lat="46.95199" lon="5.85542">
        <ele>348.13</ele>
        <time>2022-07-11T13:13:46Z</time>
      </trkpt>
      <trkpt lat="46.95192" lon="5.85588">
        <ele>349.1</ele>
        <time>2022-07-11T13:13:59Z</time>
      </trkpt>
      <trkpt lat="46.95183" lon="5.85637">
        <ele>350.54</ele>
        <time>2022-07-11T13:14:15Z</time>
      </trkpt>
      <trkpt lat="46.95174" lon="5.85675">
        <ele>351.98</ele>
        <time>2022-07-11T13:14:30Z</time>
      </trkpt>
      <trkpt lat="46.95166" lon="5.85725">
        <ele>353.42</ele>
        <time>2022-07-11T13:14:48Z</time>
      </trkpt>
      <trkpt lat="46.95164" lon="5.85734">
        <ele>354.38</ele>
        <time>2022-07-11T13:14:52Z</time>
      </trkpt>
      <trkpt lat="46.95164" lon="5.85737">
        <ele>354.38</ele>
        <time>2022-07-11T13:14:53Z</time>
      </trkpt>
      <trkpt lat="46.95164" lon="5.8574">
        <ele>354.86</ele>
        <time>2022-07-11T13:14:54Z</time>
      </trkpt>
      <trkpt lat="46.95164" lon="5.85749">
        <ele>354.86</ele>
        <time>2022-07-11T13:14:58Z</time>
      </trkpt>
      <trkpt lat="46.95161" lon="5.85787">
        <ele>356.79</ele>
        <time>2022-07-11T13:15:15Z</time>
      </trkpt>
      <trkpt lat="46.9516" lon="5.85822">
        <ele>358.71</ele>
        <time>2022-07-11T13:15:29Z</time>
      </trkpt>
      <trkpt lat="46.9516" lon="5.85825">
        <ele>358.23</ele>
        <time>2022-07-11T13:15:30Z</time>
      </trkpt>
      <trkpt lat="46.95159" lon="5.85828">
        <ele>358.71</ele>
        <time>2022-07-11T13:15:31Z</time>
      </trkpt>
      <trkpt lat="46.95159" lon="5.8583">
        <ele>358.23</ele>
        <time>2022-07-11T13:15:32Z</time>
      </trkpt>
      <trkpt lat="46.9516" lon="5.85833">
        <ele>359.19</ele>
        <time>2022-07-11T13:15:33Z</time>
      </trkpt>
      <trkpt lat="46.9516" lon="5.85836">
        <ele>358.71</ele>
        <time>2022-07-11T13:15:34Z</time>
      </trkpt>
      <trkpt lat="46.9516" lon="5.85839">
        <ele>358.71</ele>
        <time>2022-07-11T13:15:35Z</time>
      </trkpt>
      <trkpt lat="46.9516" lon="5.85841">
        <ele>358.71</ele>
        <time>2022-07-11T13:15:36Z</time>
      </trkpt>
      <trkpt lat="46.95162" lon="5.85899">
        <ele>360.63</ele>
        <time>2022-07-11T13:15:55Z</time>
      </trkpt>
      <trkpt lat="46.95164" lon="5.85928">
        <ele>362.55</ele>
        <time>2022-07-11T13:16:07Z</time>
      </trkpt>
      <trkpt lat="46.95166" lon="5.8598">
        <ele>364</ele>
        <time>2022-07-11T13:16:24Z</time>
      </trkpt>
      <trkpt lat="46.95167" lon="5.86027">
        <ele>365.44</ele>
        <time>2022-07-11T13:16:38Z</time>
      </trkpt>
      <trkpt lat="46.95162" lon="5.861">
        <ele>367.84</ele>
        <time>2022-07-11T13:17:00Z</time>
      </trkpt>
      <trkpt lat="46.9515" lon="5.86165">
        <ele>368.8</ele>
        <time>2022-07-11T13:17:18Z</time>
      </trkpt>
      <trkpt lat="46.95141" lon="5.86232">
        <ele>369.76</ele>
        <time>2022-07-11T13:17:35Z</time>
      </trkpt>
      <trkpt lat="46.95132" lon="5.86342">
        <ele>369.28</ele>
        <time>2022-07-11T13:17:56Z</time>
      </trkpt>
      <trkpt lat="46.95123" lon="5.86445">
        <ele>366.88</ele>
        <time>2022-07-11T13:18:09Z</time>
      </trkpt>
      <trkpt lat="46.95112" lon="5.86507">
        <ele>363.52</ele>
        <time>2022-07-11T13:18:14Z</time>
      </trkpt>
      <trkpt lat="46.95095" lon="5.86578">
        <ele>359.67</ele>
        <time>2022-07-11T13:18:19Z</time>
      </trkpt>
      <trkpt lat="46.95087" lon="5.86623">
        <ele>355.34</ele>
        <time>2022-07-11T13:18:22Z</time>
      </trkpt>
      <trkpt lat="46.95077" lon="5.86705">
        <ele>351.98</ele>
        <time>2022-07-11T13:18:27Z</time>
      </trkpt>
      <trkpt lat="46.95068" lon="5.86771">
        <ele>349.1</ele>
        <time>2022-07-11T13:18:31Z</time>
      </trkpt>
      <trkpt lat="46.95057" lon="5.86838">
        <ele>345.73</ele>
        <time>2022-07-11T13:18:35Z</time>
      </trkpt>
      <trkpt lat="46.95041" lon="5.86905">
        <ele>340.44</ele>
        <time>2022-07-11T13:18:39Z</time>
      </trkpt>
      <trkpt lat="46.95032" lon="5.86938">
        <ele>339</ele>
        <time>2022-07-11T13:18:41Z</time>
      </trkpt>
      <trkpt lat="46.95016" lon="5.86987">
        <ele>335.16</ele>
        <time>2022-07-11T13:18:44Z</time>
      </trkpt>
      <trkpt lat="46.95011" lon="5.87002">
        <ele>335.16</ele>
        <time>2022-07-11T13:18:45Z</time>
      </trkpt>
      <trkpt lat="46.95002" lon="5.87031">
        <ele>333.71</ele>
        <time>2022-07-11T13:18:47Z</time>
      </trkpt>
      <trkpt lat="46.94995" lon="5.87058">
        <ele>330.83</ele>
        <time>2022-07-11T13:18:49Z</time>
      </trkpt>
      <trkpt lat="46.94981" lon="5.87102">
        <ele>327.95</ele>
        <time>2022-07-11T13:18:54Z</time>
      </trkpt>
      <trkpt lat="46.94962" lon="5.87167">
        <ele>327.47</ele>
        <time>2022-07-11T13:19:05Z</time>
      </trkpt>
      <trkpt lat="46.94959" lon="5.87174">
        <ele>327.95</ele>
        <time>2022-07-11T13:19:06Z</time>
      </trkpt>
      <trkpt lat="46.94943" lon="5.8722">
        <ele>328.91</ele>
        <time>2022-07-11T13:19:13Z</time>
      </trkpt>
      <trkpt lat="46.9493" lon="5.87263">
        <ele>328.91</ele>
        <time>2022-07-11T13:19:20Z</time>
      </trkpt>
      <trkpt lat="46.94929" lon="5.87269">
        <ele>328.43</ele>
        <time>2022-07-11T13:19:21Z</time>
      </trkpt>
      <trkpt lat="46.94927" lon="5.87275">
        <ele>328.91</ele>
        <time>2022-07-11T13:19:22Z</time>
      </trkpt>
      <trkpt lat="46.9489" lon="5.8736">
        <ele>328.91</ele>
        <time>2022-07-11T13:19:40Z</time>
      </trkpt>
      <trkpt lat="46.94836" lon="5.87466">
        <ele>329.87</ele>
        <time>2022-07-11T13:20:04Z</time>
      </trkpt>
      <trkpt lat="46.94798" lon="5.87542">
        <ele>329.87</ele>
        <time>2022-07-11T13:20:22Z</time>
      </trkpt>
      <trkpt lat="46.94755" lon="5.87618">
        <ele>331.31</ele>
        <time>2022-07-11T13:20:40Z</time>
      </trkpt>
      <trkpt lat="46.9472" lon="5.87681">
        <ele>332.27</ele>
        <time>2022-07-11T13:20:57Z</time>
      </trkpt>
      <trkpt lat="46.947" lon="5.87719">
        <ele>333.23</ele>
        <time>2022-07-11T13:21:08Z</time>
      </trkpt>
      <trkpt lat="46.94666" lon="5.87783">
        <ele>335.64</ele>
        <time>2022-07-11T13:21:24Z</time>
      </trkpt>
      <trkpt lat="46.94654" lon="5.87824">
        <ele>337.56</ele>
        <time>2022-07-11T13:21:35Z</time>
      </trkpt>
      <trkpt lat="46.94658" lon="5.87829">
        <ele>338.04</ele>
        <time>2022-07-11T13:21:37Z</time>
      </trkpt>
      <trkpt lat="46.94661" lon="5.8783">
        <ele>338.04</ele>
        <time>2022-07-11T13:21:38Z</time>
      </trkpt>
      <trkpt lat="46.94664" lon="5.87831">
        <ele>338.04</ele>
        <time>2022-07-11T13:21:39Z</time>
      </trkpt>
      <trkpt lat="46.94683" lon="5.87835">
        <ele>339.48</ele>
        <time>2022-07-11T13:21:46Z</time>
      </trkpt>
      <trkpt lat="46.94694" lon="5.87875">
        <ele>339.96</ele>
        <time>2022-07-11T13:21:55Z</time>
      </trkpt>
      <trkpt lat="46.94686" lon="5.87891">
        <ele>339.96</ele>
        <time>2022-07-11T13:22:00Z</time>
      </trkpt>
      <trkpt lat="46.94684" lon="5.87894">
        <ele>339.96</ele>
        <time>2022-07-11T13:22:01Z</time>
      </trkpt>
      <trkpt lat="46.94684" lon="5.87897">
        <ele>339.96</ele>
        <time>2022-07-11T13:22:02Z</time>
      </trkpt>
      <trkpt lat="46.94684" lon="5.879">
        <ele>339.48</ele>
        <time>2022-07-11T13:22:03Z</time>
      </trkpt>
      <trkpt lat="46.94685" lon="5.87903">
        <ele>339.48</ele>
        <time>2022-07-11T13:22:04Z</time>
      </trkpt>
      <trkpt lat="46.94686" lon="5.87904">
        <ele>339.48</ele>
        <time>2022-07-11T13:22:05Z</time>
      </trkpt>
      <trkpt lat="46.94688" lon="5.87905">
        <ele>339.48</ele>
        <time>2022-07-11T13:22:09Z</time>
      </trkpt>
      <trkpt lat="46.9469" lon="5.87905">
        <ele>339</ele>
        <time>2022-07-11T13:22:10Z</time>
      </trkpt>
      <trkpt lat="46.94691" lon="5.87907">
        <ele>339.48</ele>
        <time>2022-07-11T13:22:11Z</time>
      </trkpt>
      <trkpt lat="46.94691" lon="5.87908">
        <ele>339.48</ele>
        <time>2022-07-11T13:22:12Z</time>
      </trkpt>
      <trkpt lat="46.9469" lon="5.8791">
        <ele>339.48</ele>
        <time>2022-07-11T13:22:13Z</time>
      </trkpt>
      <trkpt lat="46.94689" lon="5.87912">
        <ele>339.48</ele>
        <time>2022-07-11T13:22:14Z</time>
      </trkpt>
      <trkpt lat="46.94688" lon="5.87916">
        <ele>339</ele>
        <time>2022-07-11T13:22:15Z</time>
      </trkpt>
      <trkpt lat="46.94687" lon="5.8792">
        <ele>339</ele>
        <time>2022-07-11T13:22:16Z</time>
      </trkpt>
      <trkpt lat="46.94683" lon="5.87929">
        <ele>339</ele>
        <time>2022-07-11T13:22:19Z</time>
      </trkpt>
      <trkpt lat="46.94682" lon="5.87932">
        <ele>339</ele>
        <time>2022-07-11T13:22:20Z</time>
      </trkpt>
      <trkpt lat="46.9468" lon="5.87932">
        <ele>338.52</ele>
        <time>2022-07-11T13:22:21Z</time>
      </trkpt>
      <trkpt lat="46.94678" lon="5.87931">
        <ele>339.48</ele>
        <time>2022-07-11T13:22:22Z</time>
      </trkpt>
      <trkpt lat="46.94677" lon="5.87928">
        <ele>339.48</ele>
        <time>2022-07-11T13:22:23Z</time>
      </trkpt>
      <trkpt lat="46.94677" lon="5.87926">
        <ele>339</ele>
        <time>2022-07-11T13:22:24Z</time>
      </trkpt>
      <trkpt lat="46.94674" lon="5.87924">
        <ele>339.48</ele>
        <time>2022-07-11T13:22:33Z</time>
      </trkpt>
    </trkseg>
  </trk>
</gpx>